<?xml version="1.0" encoding="UTF-8" standalone="no" ?>
<gpx xmlns="http://www.topografix.com/GPX/1/1" xmlns:xsi="http://www.w3.org/2001/XMLSchema-instance" xsi:schemaLocation="http://www.topografix.com/GPX/1/1 http://www.topografix.com/GPX/1/1/gpx.xsd" version="1.1" creator="VisuGPX - https://www.visugpx.com">
  <metadata>
    <name>Boucle VTT technique Arbonne</name>
  </metadata>
  <trk>
    <name><![CDATA[Arbonne]]></name>
    <trkseg>
      <trkpt lat="48.39047" lon="2.55271">
        <ele>78.608200073242</ele>
        <time>2020-05-29T10:21:17.000Z</time>
      </trkpt>
      <trkpt lat="48.39052" lon="2.55267">
        <ele>78.464889526367</ele>
        <time>2020-05-29T10:21:17.001Z</time>
      </trkpt>
      <trkpt lat="48.39053" lon="2.55255">
        <ele>78.59260559082</ele>
        <time>2020-05-29T10:21:17.004Z</time>
      </trkpt>
      <trkpt lat="48.39084" lon="2.55224">
        <ele>77.667694091797</ele>
        <time>2020-05-29T10:21:17.014Z</time>
      </trkpt>
      <trkpt lat="48.39111" lon="2.55169">
        <ele>78.591835021973</ele>
        <time>2020-05-29T10:21:17.033Z</time>
      </trkpt>
      <trkpt lat="48.39127" lon="2.55147">
        <ele>79.606750488281</ele>
        <time>2020-05-29T10:21:17.057Z</time>
      </trkpt>
      <trkpt lat="48.39153" lon="2.5503">
        <ele>79.977600097656</ele>
        <time>2020-05-29T10:21:17.097Z</time>
      </trkpt>
      <trkpt lat="48.39163" lon="2.54965">
        <ele>79.906799316406</ele>
        <time>2020-05-29T10:21:17.146Z</time>
      </trkpt>
      <trkpt lat="48.39158" lon="2.54886">
        <ele>80.097198486328</ele>
        <time>2020-05-29T10:21:17.206Z</time>
      </trkpt>
      <trkpt lat="48.39165" lon="2.54829">
        <ele>80.925010681152</ele>
        <time>2020-05-29T10:21:17.273Z</time>
      </trkpt>
      <trkpt lat="48.39158" lon="2.54794">
        <ele>81.288505554199</ele>
        <time>2020-05-29T10:21:17.345Z</time>
      </trkpt>
      <trkpt lat="48.3916" lon="2.54769">
        <ele>81.256828308105</ele>
        <time>2020-05-29T10:21:17.421Z</time>
      </trkpt>
      <trkpt lat="48.39153" lon="2.54737">
        <ele>81.33708190918</ele>
        <time>2020-05-29T10:21:17.501Z</time>
      </trkpt>
      <trkpt lat="48.39154" lon="2.54727">
        <ele>81.324806213379</ele>
        <time>2020-05-29T10:21:17.582Z</time>
      </trkpt>
      <trkpt lat="48.39167" lon="2.54699">
        <ele>81.620582580566</ele>
        <time>2020-05-29T10:21:17.668Z</time>
      </trkpt>
      <trkpt lat="48.39171" lon="2.54664">
        <ele>82.041854858398</ele>
        <time>2020-05-29T10:21:17.759Z</time>
      </trkpt>
      <trkpt lat="48.39172" lon="2.54591">
        <ele>86.141265869141</ele>
        <time>2020-05-29T10:21:17.859Z</time>
      </trkpt>
      <trkpt lat="48.39167" lon="2.54574">
        <ele>86.787864685059</ele>
        <time>2020-05-29T10:21:17.962Z</time>
      </trkpt>
      <trkpt lat="48.39156" lon="2.54563">
        <ele>86.748435974121</ele>
        <time>2020-05-29T10:21:18.068Z</time>
      </trkpt>
      <trkpt lat="48.39157" lon="2.54533">
        <ele>88.89143371582</ele>
        <time>2020-05-29T10:21:18.178Z</time>
      </trkpt>
      <trkpt lat="48.39153" lon="2.54527">
        <ele>89.046508789062</ele>
        <time>2020-05-29T10:21:18.289Z</time>
      </trkpt>
      <trkpt lat="48.39167" lon="2.54475">
        <ele>93.110443115234</ele>
        <time>2020-05-29T10:21:18.407Z</time>
      </trkpt>
      <trkpt lat="48.39176" lon="2.54405">
        <ele>98.006362915039</ele>
        <time>2020-05-29T10:21:18.535Z</time>
      </trkpt>
      <trkpt lat="48.39193" lon="2.54383">
        <ele>101.76725769043</ele>
        <time>2020-05-29T10:21:18.667Z</time>
      </trkpt>
      <trkpt lat="48.39201" lon="2.54379">
        <ele>103.34636688232</ele>
        <time>2020-05-29T10:21:18.801Z</time>
      </trkpt>
      <trkpt lat="48.39213" lon="2.5435">
        <ele>106.75026702881</ele>
        <time>2020-05-29T10:21:18.939Z</time>
      </trkpt>
      <trkpt lat="48.39207" lon="2.54309">
        <ele>106.36674499512</ele>
        <time>2020-05-29T10:21:19.083Z</time>
      </trkpt>
      <trkpt lat="48.39211" lon="2.54243">
        <ele>106.80438995361</ele>
        <time>2020-05-29T10:21:19.236Z</time>
      </trkpt>
      <trkpt lat="48.39207" lon="2.54229">
        <ele>105.78423309326</ele>
        <time>2020-05-29T10:21:19.391Z</time>
      </trkpt>
      <trkpt lat="48.39211" lon="2.54203">
        <ele>105.74925231934</ele>
        <time>2020-05-29T10:21:19.549Z</time>
      </trkpt>
      <trkpt lat="48.39234" lon="2.54167">
        <ele>110.02374267578</ele>
        <time>2020-05-29T10:21:19.714Z</time>
      </trkpt>
      <trkpt lat="48.3924" lon="2.54148">
        <ele>110.78623962402</ele>
        <time>2020-05-29T10:21:19.882Z</time>
      </trkpt>
      <trkpt lat="48.39253" lon="2.54132">
        <ele>112.95082092285</ele>
        <time>2020-05-29T10:21:20.053Z</time>
      </trkpt>
      <trkpt lat="48.39256" lon="2.54118">
        <ele>113.0890045166</ele>
        <time>2020-05-29T10:21:20.226Z</time>
      </trkpt>
      <trkpt lat="48.39247" lon="2.5409">
        <ele>110.62533569336</ele>
        <time>2020-05-29T10:21:20.403Z</time>
      </trkpt>
      <trkpt lat="48.39248" lon="2.54045">
        <ele>111.67268371582</ele>
        <time>2020-05-29T10:21:20.586Z</time>
      </trkpt>
      <trkpt lat="48.39232" lon="2.53982">
        <ele>109.89804840088</ele>
        <time>2020-05-29T10:21:20.778Z</time>
      </trkpt>
      <trkpt lat="48.39233" lon="2.53964">
        <ele>110.32807922363</ele>
        <time>2020-05-29T10:21:20.973Z</time>
      </trkpt>
      <trkpt lat="48.39242" lon="2.53925">
        <ele>110.50105285645</ele>
        <time>2020-05-29T10:21:21.173Z</time>
      </trkpt>
      <trkpt lat="48.39253" lon="2.53915">
        <ele>111.72984313965</ele>
        <time>2020-05-29T10:21:21.376Z</time>
      </trkpt>
      <trkpt lat="48.39266" lon="2.5391">
        <ele>113.11225891113</ele>
        <time>2020-05-29T10:21:21.581Z</time>
      </trkpt>
      <trkpt lat="48.39267" lon="2.53897">
        <ele>113.23726654053</ele>
        <time>2020-05-29T10:21:21.788Z</time>
      </trkpt>
      <trkpt lat="48.39278" lon="2.53879">
        <ele>114.72402954102</ele>
        <time>2020-05-29T10:21:21.999Z</time>
      </trkpt>
      <trkpt lat="48.39286" lon="2.53852">
        <ele>115.72903442383</ele>
        <time>2020-05-29T10:21:22.213Z</time>
      </trkpt>
      <trkpt lat="48.39297" lon="2.53846">
        <ele>116.95272064209</ele>
        <time>2020-05-29T10:21:22.430Z</time>
      </trkpt>
      <trkpt lat="48.39305" lon="2.53833">
        <ele>117.82847595215</ele>
        <time>2020-05-29T10:21:22.649Z</time>
      </trkpt>
      <trkpt lat="48.39327" lon="2.53815">
        <ele>121.17581176758</ele>
        <time>2020-05-29T10:21:22.873Z</time>
      </trkpt>
      <trkpt lat="48.39331" lon="2.53805">
        <ele>121.66510772705</ele>
        <time>2020-05-29T10:21:23.099Z</time>
      </trkpt>
      <trkpt lat="48.39341" lon="2.53799">
        <ele>122.71199798584</ele>
        <time>2020-05-29T10:21:23.327Z</time>
      </trkpt>
      <trkpt lat="48.39358" lon="2.53776">
        <ele>123.47190856934</ele>
        <time>2020-05-29T10:21:23.560Z</time>
      </trkpt>
      <trkpt lat="48.39373" lon="2.53764">
        <ele>122.95487213135</ele>
        <time>2020-05-29T10:21:23.796Z</time>
      </trkpt>
      <trkpt lat="48.39408" lon="2.53771">
        <ele>121.35205078125</ele>
        <time>2020-05-29T10:21:24.039Z</time>
      </trkpt>
      <trkpt lat="48.39426" lon="2.53762">
        <ele>120.38661956787</ele>
        <time>2020-05-29T10:21:24.286Z</time>
      </trkpt>
      <trkpt lat="48.39462" lon="2.53793">
        <ele>120.15071105957</ele>
        <time>2020-05-29T10:21:24.541Z</time>
      </trkpt>
      <trkpt lat="48.39473" lon="2.53798">
        <ele>120.0729675293</ele>
        <time>2020-05-29T10:21:24.798Z</time>
      </trkpt>
      <trkpt lat="48.39526" lon="2.53804">
        <ele>119.64429473877</ele>
        <time>2020-05-29T10:21:25.066Z</time>
      </trkpt>
      <trkpt lat="48.39565" lon="2.53799">
        <ele>119.59548950195</ele>
        <time>2020-05-29T10:21:25.342Z</time>
      </trkpt>
      <trkpt lat="48.39587" lon="2.53811">
        <ele>119.85987854004</ele>
        <time>2020-05-29T10:21:25.623Z</time>
      </trkpt>
      <trkpt lat="48.39596" lon="2.53799">
        <ele>119.96838378906</ele>
        <time>2020-05-29T10:21:25.906Z</time>
      </trkpt>
      <trkpt lat="48.39611" lon="2.53796">
        <ele>118.27247619629</ele>
        <time>2020-05-29T10:21:26.192Z</time>
      </trkpt>
      <trkpt lat="48.3962" lon="2.53803">
        <ele>117.07443237305</ele>
        <time>2020-05-29T10:21:26.480Z</time>
      </trkpt>
      <trkpt lat="48.3966" lon="2.5379">
        <ele>113.4189453125</ele>
        <time>2020-05-29T10:21:26.776Z</time>
      </trkpt>
      <trkpt lat="48.39642" lon="2.53751">
        <ele>117.36486053467</ele>
        <time>2020-05-29T10:21:27.079Z</time>
      </trkpt>
      <trkpt lat="48.39641" lon="2.5368">
        <ele>118.03067016602</ele>
        <time>2020-05-29T10:21:27.391Z</time>
      </trkpt>
      <trkpt lat="48.39646" lon="2.53673">
        <ele>118.23763275146</ele>
        <time>2020-05-29T10:21:27.705Z</time>
      </trkpt>
      <trkpt lat="48.39647" lon="2.53654">
        <ele>118.41554260254</ele>
        <time>2020-05-29T10:21:28.021Z</time>
      </trkpt>
      <trkpt lat="48.39681" lon="2.53627">
        <ele>118.48016357422</ele>
        <time>2020-05-29T10:21:28.345Z</time>
      </trkpt>
      <trkpt lat="48.39689" lon="2.53599">
        <ele>117.16148376465</ele>
        <time>2020-05-29T10:21:28.673Z</time>
      </trkpt>
      <trkpt lat="48.39691" lon="2.53581">
        <ele>117.37677764893</ele>
        <time>2020-05-29T10:21:29.003Z</time>
      </trkpt>
      <trkpt lat="48.39684" lon="2.53575">
        <ele>118.75894927979</ele>
        <time>2020-05-29T10:21:29.335Z</time>
      </trkpt>
      <trkpt lat="48.39681" lon="2.53562">
        <ele>119.26206970215</ele>
        <time>2020-05-29T10:21:29.669Z</time>
      </trkpt>
      <trkpt lat="48.39685" lon="2.53521">
        <ele>119.14492034912</ele>
        <time>2020-05-29T10:21:30.008Z</time>
      </trkpt>
      <trkpt lat="48.39743" lon="2.53324">
        <ele>117.95300292969</ele>
        <time>2020-05-29T10:21:30.376Z</time>
      </trkpt>
      <trkpt lat="48.39751" lon="2.53283">
        <ele>118.392578125</ele>
        <time>2020-05-29T10:21:30.750Z</time>
      </trkpt>
      <trkpt lat="48.39742" lon="2.53225">
        <ele>119.66106414795</ele>
        <time>2020-05-29T10:21:31.132Z</time>
      </trkpt>
      <trkpt lat="48.39746" lon="2.53193">
        <ele>120.81958770752</ele>
        <time>2020-05-29T10:21:31.518Z</time>
      </trkpt>
      <trkpt lat="48.39725" lon="2.53175">
        <ele>121.22949981689</ele>
        <time>2020-05-29T10:21:31.909Z</time>
      </trkpt>
      <trkpt lat="48.39712" lon="2.53144">
        <ele>121.35851287842</ele>
        <time>2020-05-29T10:21:32.305Z</time>
      </trkpt>
      <trkpt lat="48.39692" lon="2.53123">
        <ele>121.12157440186</ele>
        <time>2020-05-29T10:21:32.705Z</time>
      </trkpt>
      <trkpt lat="48.39681" lon="2.53089">
        <ele>120.99566650391</ele>
        <time>2020-05-29T10:21:33.110Z</time>
      </trkpt>
      <trkpt lat="48.39666" lon="2.53075">
        <ele>120.70606994629</ele>
        <time>2020-05-29T10:21:33.519Z</time>
      </trkpt>
      <trkpt lat="48.39658" lon="2.53045">
        <ele>119.8900604248</ele>
        <time>2020-05-29T10:21:33.932Z</time>
      </trkpt>
      <trkpt lat="48.39664" lon="2.5301">
        <ele>118.56007385254</ele>
        <time>2020-05-29T10:21:34.350Z</time>
      </trkpt>
      <trkpt lat="48.39672" lon="2.5299">
        <ele>118.22036743164</ele>
        <time>2020-05-29T10:21:34.771Z</time>
      </trkpt>
      <trkpt lat="48.39667" lon="2.52978">
        <ele>118.24822235107</ele>
        <time>2020-05-29T10:21:35.194Z</time>
      </trkpt>
      <trkpt lat="48.39653" lon="2.52977">
        <ele>118.63075256348</ele>
        <time>2020-05-29T10:21:35.620Z</time>
      </trkpt>
      <trkpt lat="48.3962" lon="2.52961">
        <ele>119.20790100098</ele>
        <time>2020-05-29T10:21:36.053Z</time>
      </trkpt>
      <trkpt lat="48.39622" lon="2.52928">
        <ele>119.28858184814</ele>
        <time>2020-05-29T10:21:36.490Z</time>
      </trkpt>
      <trkpt lat="48.39644" lon="2.52844">
        <ele>117.909324646</ele>
        <time>2020-05-29T10:21:36.939Z</time>
      </trkpt>
      <trkpt lat="48.39645" lon="2.52825">
        <ele>117.6413192749</ele>
        <time>2020-05-29T10:21:37.391Z</time>
      </trkpt>
      <trkpt lat="48.39663" lon="2.52766">
        <ele>114.88510894775</ele>
        <time>2020-05-29T10:21:37.851Z</time>
      </trkpt>
      <trkpt lat="48.39676" lon="2.5271">
        <ele>112.61081695557</ele>
        <time>2020-05-29T10:21:38.319Z</time>
      </trkpt>
      <trkpt lat="48.39688" lon="2.52586">
        <ele>108.8208694458</ele>
        <time>2020-05-29T10:21:38.804Z</time>
      </trkpt>
      <trkpt lat="48.39711" lon="2.52485">
        <ele>108.51371002197</ele>
        <time>2020-05-29T10:21:39.303Z</time>
      </trkpt>
      <trkpt lat="48.39726" lon="2.52389">
        <ele>107.98234558105</ele>
        <time>2020-05-29T10:21:39.815Z</time>
      </trkpt>
      <trkpt lat="48.39731" lon="2.52339">
        <ele>104.69388580322</ele>
        <time>2020-05-29T10:21:40.334Z</time>
      </trkpt>
      <trkpt lat="48.39751" lon="2.52286">
        <ele>103.00553131104</ele>
        <time>2020-05-29T10:21:40.861Z</time>
      </trkpt>
      <trkpt lat="48.39756" lon="2.52262">
        <ele>102.0121383667</ele>
        <time>2020-05-29T10:21:41.392Z</time>
      </trkpt>
      <trkpt lat="48.3975" lon="2.52236">
        <ele>102.58683013916</ele>
        <time>2020-05-29T10:21:41.926Z</time>
      </trkpt>
      <trkpt lat="48.39761" lon="2.52216">
        <ele>100.03003692627</ele>
        <time>2020-05-29T10:21:42.464Z</time>
      </trkpt>
      <trkpt lat="48.39758" lon="2.52196">
        <ele>99.45580291748</ele>
        <time>2020-05-29T10:21:43.005Z</time>
      </trkpt>
      <trkpt lat="48.3976" lon="2.52176">
        <ele>98.158103942871</ele>
        <time>2020-05-29T10:21:43.548Z</time>
      </trkpt>
      <trkpt lat="48.39771" lon="2.52143">
        <ele>96.962188720703</ele>
        <time>2020-05-29T10:21:44.096Z</time>
      </trkpt>
      <trkpt lat="48.39765" lon="2.52125">
        <ele>95.047416687012</ele>
        <time>2020-05-29T10:21:44.647Z</time>
      </trkpt>
      <trkpt lat="48.39764" lon="2.52099">
        <ele>94.051658630371</ele>
        <time>2020-05-29T10:21:45.201Z</time>
      </trkpt>
      <trkpt lat="48.39768" lon="2.52093">
        <ele>93.989051818848</ele>
        <time>2020-05-29T10:21:45.756Z</time>
      </trkpt>
      <trkpt lat="48.3977" lon="2.52073">
        <ele>94.163414001465</ele>
        <time>2020-05-29T10:21:46.314Z</time>
      </trkpt>
      <trkpt lat="48.39767" lon="2.52056">
        <ele>94.637687683105</ele>
        <time>2020-05-29T10:21:46.874Z</time>
      </trkpt>
      <trkpt lat="48.39779" lon="2.52038">
        <ele>96.862403869629</ele>
        <time>2020-05-29T10:21:47.438Z</time>
      </trkpt>
      <trkpt lat="48.39775" lon="2.5202">
        <ele>97.211166381836</ele>
        <time>2020-05-29T10:21:48.004Z</time>
      </trkpt>
      <trkpt lat="48.39779" lon="2.51983">
        <ele>97.448287963867</ele>
        <time>2020-05-29T10:21:48.575Z</time>
      </trkpt>
      <trkpt lat="48.39776" lon="2.51903">
        <ele>101.67626953125</ele>
        <time>2020-05-29T10:21:49.157Z</time>
      </trkpt>
      <trkpt lat="48.39782" lon="2.5189">
        <ele>100.62483978271</ele>
        <time>2020-05-29T10:21:49.741Z</time>
      </trkpt>
      <trkpt lat="48.39775" lon="2.51841">
        <ele>101.95001983643</ele>
        <time>2020-05-29T10:21:50.332Z</time>
      </trkpt>
      <trkpt lat="48.39778" lon="2.51816">
        <ele>99.996223449707</ele>
        <time>2020-05-29T10:21:50.926Z</time>
      </trkpt>
      <trkpt lat="48.39752" lon="2.5173">
        <ele>97.614898681641</ele>
        <time>2020-05-29T10:21:51.533Z</time>
      </trkpt>
      <trkpt lat="48.39743" lon="2.51616">
        <ele>86.529243469238</ele>
        <time>2020-05-29T10:21:52.155Z</time>
      </trkpt>
      <trkpt lat="48.39745" lon="2.51595">
        <ele>84.644737243652</ele>
        <time>2020-05-29T10:21:52.780Z</time>
      </trkpt>
      <trkpt lat="48.3976" lon="2.5155">
        <ele>80.863723754883</ele>
        <time>2020-05-29T10:21:53.411Z</time>
      </trkpt>
      <trkpt lat="48.39742" lon="2.51488">
        <ele>79.131401062012</ele>
        <time>2020-05-29T10:21:54.051Z</time>
      </trkpt>
      <trkpt lat="48.39692" lon="2.51407">
        <ele>79</ele>
        <time>2020-05-29T10:21:54.706Z</time>
      </trkpt>
      <trkpt lat="48.39678" lon="2.51338">
        <ele>79.040130615234</ele>
        <time>2020-05-29T10:21:55.371Z</time>
      </trkpt>
      <trkpt lat="48.39693" lon="2.51252">
        <ele>78.883750915527</ele>
        <time>2020-05-29T10:21:56.048Z</time>
      </trkpt>
      <trkpt lat="48.39709" lon="2.51196">
        <ele>79.322227478027</ele>
        <time>2020-05-29T10:21:56.733Z</time>
      </trkpt>
      <trkpt lat="48.39712" lon="2.51194">
        <ele>79.237396240234</ele>
        <time>2020-05-29T10:21:57.418Z</time>
      </trkpt>
      <trkpt lat="48.39751" lon="2.51254">
        <ele>78.214988708496</ele>
        <time>2020-05-29T10:21:58.115Z</time>
      </trkpt>
      <trkpt lat="48.39843" lon="2.51383">
        <ele>79.477760314941</ele>
        <time>2020-05-29T10:21:58.837Z</time>
      </trkpt>
      <trkpt lat="48.39949" lon="2.51669">
        <ele>75.819046020508</ele>
        <time>2020-05-29T10:21:59.603Z</time>
      </trkpt>
      <trkpt lat="48.40056" lon="2.51868">
        <ele>78.401306152344</ele>
        <time>2020-05-29T10:22:00.403Z</time>
      </trkpt>
      <trkpt lat="48.40105" lon="2.51967">
        <ele>80.597290039062</ele>
        <time>2020-05-29T10:22:01.219Z</time>
      </trkpt>
      <trkpt lat="48.40175" lon="2.52092">
        <ele>79.425064086914</ele>
        <time>2020-05-29T10:22:02.057Z</time>
      </trkpt>
      <trkpt lat="48.40197" lon="2.52154">
        <ele>79.715492248535</ele>
        <time>2020-05-29T10:22:02.904Z</time>
      </trkpt>
      <trkpt lat="48.40206" lon="2.52265">
        <ele>78.835273742676</ele>
        <time>2020-05-29T10:22:03.766Z</time>
      </trkpt>
      <trkpt lat="48.40217" lon="2.52341">
        <ele>78.263107299805</ele>
        <time>2020-05-29T10:22:04.638Z</time>
      </trkpt>
      <trkpt lat="48.40227" lon="2.52381">
        <ele>78.62232208252</ele>
        <time>2020-05-29T10:22:05.516Z</time>
      </trkpt>
      <trkpt lat="48.40297" lon="2.52534">
        <ele>81.196899414062</ele>
        <time>2020-05-29T10:22:06.419Z</time>
      </trkpt>
      <trkpt lat="48.40323" lon="2.5257">
        <ele>82.370399475098</ele>
        <time>2020-05-29T10:22:07.329Z</time>
      </trkpt>
      <trkpt lat="48.40425" lon="2.52663">
        <ele>83.975090026855</ele>
        <time>2020-05-29T10:22:08.263Z</time>
      </trkpt>
      <trkpt lat="48.40432" lon="2.52653">
        <ele>83.476127624512</ele>
        <time>2020-05-29T10:22:09.199Z</time>
      </trkpt>
      <trkpt lat="48.40436" lon="2.52603">
        <ele>81.775253295898</ele>
        <time>2020-05-29T10:22:10.141Z</time>
      </trkpt>
      <trkpt lat="48.40448" lon="2.52549">
        <ele>81.38648223877</ele>
        <time>2020-05-29T10:22:11.091Z</time>
      </trkpt>
      <trkpt lat="48.4048" lon="2.52338">
        <ele>81.052070617676</ele>
        <time>2020-05-29T10:22:12.070Z</time>
      </trkpt>
      <trkpt lat="48.4049" lon="2.52252">
        <ele>79.641136169434</ele>
        <time>2020-05-29T10:22:13.060Z</time>
      </trkpt>
      <trkpt lat="48.4051" lon="2.52132">
        <ele>80.552230834961</ele>
        <time>2020-05-29T10:22:14.067Z</time>
      </trkpt>
      <trkpt lat="48.40517" lon="2.52125">
        <ele>80.433280944824</ele>
        <time>2020-05-29T10:22:15.076Z</time>
      </trkpt>
      <trkpt lat="48.40527" lon="2.52126">
        <ele>80.069030761719</ele>
        <time>2020-05-29T10:22:16.087Z</time>
      </trkpt>
      <trkpt lat="48.40654" lon="2.52204">
        <ele>79.664970397949</ele>
        <time>2020-05-29T10:22:17.125Z</time>
      </trkpt>
      <trkpt lat="48.40667" lon="2.52201">
        <ele>79.852729797363</ele>
        <time>2020-05-29T10:22:18.166Z</time>
      </trkpt>
      <trkpt lat="48.40674" lon="2.52192">
        <ele>79.727821350098</ele>
        <time>2020-05-29T10:22:19.208Z</time>
      </trkpt>
      <trkpt lat="48.40673" lon="2.52116">
        <ele>77.040756225586</ele>
        <time>2020-05-29T10:22:20.261Z</time>
      </trkpt>
      <trkpt lat="48.4068" lon="2.5208">
        <ele>75.980239868164</ele>
        <time>2020-05-29T10:22:21.319Z</time>
      </trkpt>
      <trkpt lat="48.4068" lon="2.52042">
        <ele>75.521156311035</ele>
        <time>2020-05-29T10:22:22.382Z</time>
      </trkpt>
      <trkpt lat="48.40691" lon="2.51965">
        <ele>76.46142578125</ele>
        <time>2020-05-29T10:22:23.455Z</time>
      </trkpt>
      <trkpt lat="48.40693" lon="2.51931">
        <ele>77.086845397949</ele>
        <time>2020-05-29T10:22:24.533Z</time>
      </trkpt>
      <trkpt lat="48.40691" lon="2.51896">
        <ele>76.977645874023</ele>
        <time>2020-05-29T10:22:25.615Z</time>
      </trkpt>
      <trkpt lat="48.40672" lon="2.51869">
        <ele>76.335136413574</ele>
        <time>2020-05-29T10:22:26.703Z</time>
      </trkpt>
      <trkpt lat="48.40653" lon="2.51854">
        <ele>76.060188293457</ele>
        <time>2020-05-29T10:22:27.795Z</time>
      </trkpt>
      <trkpt lat="48.40639" lon="2.51855">
        <ele>75.706497192383</ele>
        <time>2020-05-29T10:22:28.890Z</time>
      </trkpt>
      <trkpt lat="48.40627" lon="2.51847">
        <ele>75.527084350586</ele>
        <time>2020-05-29T10:22:29.987Z</time>
      </trkpt>
      <trkpt lat="48.40628" lon="2.51816">
        <ele>75.504058837891</ele>
        <time>2020-05-29T10:22:31.088Z</time>
      </trkpt>
      <trkpt lat="48.4066" lon="2.51697">
        <ele>75.932373046875</ele>
        <time>2020-05-29T10:22:32.207Z</time>
      </trkpt>
      <trkpt lat="48.40678" lon="2.51644">
        <ele>77.830001831055</ele>
        <time>2020-05-29T10:22:33.334Z</time>
      </trkpt>
      <trkpt lat="48.40682" lon="2.51619">
        <ele>78.11743927002</ele>
        <time>2020-05-29T10:22:34.464Z</time>
      </trkpt>
      <trkpt lat="48.40706" lon="2.51553">
        <ele>82.11450958252</ele>
        <time>2020-05-29T10:22:35.604Z</time>
      </trkpt>
      <trkpt lat="48.40717" lon="2.51514">
        <ele>81.84757232666</ele>
        <time>2020-05-29T10:22:36.750Z</time>
      </trkpt>
      <trkpt lat="48.40741" lon="2.5148">
        <ele>82.262031555176</ele>
        <time>2020-05-29T10:22:37.902Z</time>
      </trkpt>
      <trkpt lat="48.40872" lon="2.51241">
        <ele>83.287055969238</ele>
        <time>2020-05-29T10:22:39.096Z</time>
      </trkpt>
      <trkpt lat="48.40895" lon="2.51166">
        <ele>81.44660949707</ele>
        <time>2020-05-29T10:22:40.301Z</time>
      </trkpt>
      <trkpt lat="48.40924" lon="2.50968">
        <ele>82.523445129395</ele>
        <time>2020-05-29T10:22:41.533Z</time>
      </trkpt>
      <trkpt lat="48.40937" lon="2.50855">
        <ele>81.944404602051</ele>
        <time>2020-05-29T10:22:42.780Z</time>
      </trkpt>
      <trkpt lat="48.40942" lon="2.50844">
        <ele>82.584510803223</ele>
        <time>2020-05-29T10:22:44.029Z</time>
      </trkpt>
      <trkpt lat="48.40953" lon="2.506">
        <ele>80.155685424805</ele>
        <time>2020-05-29T10:22:45.310Z</time>
      </trkpt>
      <trkpt lat="48.40943" lon="2.50473">
        <ele>80.44743347168</ele>
        <time>2020-05-29T10:22:46.608Z</time>
      </trkpt>
      <trkpt lat="48.40943" lon="2.50441">
        <ele>81.200065612793</ele>
        <time>2020-05-29T10:22:47.910Z</time>
      </trkpt>
      <trkpt lat="48.40975" lon="2.50221">
        <ele>85.043418884277</ele>
        <time>2020-05-29T10:22:49.242Z</time>
      </trkpt>
      <trkpt lat="48.40986" lon="2.50171">
        <ele>86.836112976074</ele>
        <time>2020-05-29T10:22:50.581Z</time>
      </trkpt>
      <trkpt lat="48.40991" lon="2.50101">
        <ele>87.880790710449</ele>
        <time>2020-05-29T10:22:51.930Z</time>
      </trkpt>
      <trkpt lat="48.40988" lon="2.5009">
        <ele>87.981254577637</ele>
        <time>2020-05-29T10:22:53.280Z</time>
      </trkpt>
      <trkpt lat="48.40994" lon="2.50049">
        <ele>88.290992736816</ele>
        <time>2020-05-29T10:22:54.636Z</time>
      </trkpt>
      <trkpt lat="48.41012" lon="2.49991">
        <ele>87.546905517578</ele>
        <time>2020-05-29T10:22:56.001Z</time>
      </trkpt>
      <trkpt lat="48.41026" lon="2.49857">
        <ele>88.885398864746</ele>
        <time>2020-05-29T10:22:57.384Z</time>
      </trkpt>
      <trkpt lat="48.41025" lon="2.49771">
        <ele>88.881278991699</ele>
        <time>2020-05-29T10:22:58.778Z</time>
      </trkpt>
      <trkpt lat="48.41035" lon="2.497">
        <ele>93.327827453613</ele>
        <time>2020-05-29T10:23:00.182Z</time>
      </trkpt>
      <trkpt lat="48.41056" lon="2.49465">
        <ele>107.76374816895</ele>
        <time>2020-05-29T10:23:01.617Z</time>
      </trkpt>
      <trkpt lat="48.41088" lon="2.4934">
        <ele>112.13516235352</ele>
        <time>2020-05-29T10:23:03.070Z</time>
      </trkpt>
      <trkpt lat="48.41106" lon="2.49257">
        <ele>110.68846130371</ele>
        <time>2020-05-29T10:23:04.535Z</time>
      </trkpt>
      <trkpt lat="48.41117" lon="2.4916">
        <ele>104.42015075684</ele>
        <time>2020-05-29T10:23:06.013Z</time>
      </trkpt>
      <trkpt lat="48.41162" lon="2.49008">
        <ele>96.14811706543</ele>
        <time>2020-05-29T10:23:07.513Z</time>
      </trkpt>
      <trkpt lat="48.41174" lon="2.48975">
        <ele>95.28540802002</ele>
        <time>2020-05-29T10:23:09.018Z</time>
      </trkpt>
      <trkpt lat="48.41192" lon="2.48904">
        <ele>94.89567565918</ele>
        <time>2020-05-29T10:23:10.533Z</time>
      </trkpt>
      <trkpt lat="48.41205" lon="2.48781">
        <ele>95.378479003906</ele>
        <time>2020-05-29T10:23:12.065Z</time>
      </trkpt>
      <trkpt lat="48.41235" lon="2.48644">
        <ele>97.066772460938</ele>
        <time>2020-05-29T10:23:13.616Z</time>
      </trkpt>
      <trkpt lat="48.41265" lon="2.48554">
        <ele>93.93904876709</ele>
        <time>2020-05-29T10:23:15.180Z</time>
      </trkpt>
      <trkpt lat="48.4127" lon="2.48523">
        <ele>95.112205505371</ele>
        <time>2020-05-29T10:23:16.749Z</time>
      </trkpt>
      <trkpt lat="48.4128" lon="2.48498">
        <ele>96.156730651855</ele>
        <time>2020-05-29T10:23:18.322Z</time>
      </trkpt>
      <trkpt lat="48.41291" lon="2.48458">
        <ele>96.637634277344</ele>
        <time>2020-05-29T10:23:19.900Z</time>
      </trkpt>
      <trkpt lat="48.41293" lon="2.48428">
        <ele>95.530296325684</ele>
        <time>2020-05-29T10:23:21.482Z</time>
      </trkpt>
      <trkpt lat="48.41289" lon="2.48381">
        <ele>92.110427856445</ele>
        <time>2020-05-29T10:23:23.071Z</time>
      </trkpt>
      <trkpt lat="48.41303" lon="2.48367">
        <ele>92.536865234375</ele>
        <time>2020-05-29T10:23:24.663Z</time>
      </trkpt>
      <trkpt lat="48.41315" lon="2.48368">
        <ele>93.367546081543</ele>
        <time>2020-05-29T10:23:26.258Z</time>
      </trkpt>
      <trkpt lat="48.41343" lon="2.48383">
        <ele>96.411071777344</ele>
        <time>2020-05-29T10:23:27.858Z</time>
      </trkpt>
      <trkpt lat="48.41359" lon="2.4838">
        <ele>97.810279846191</ele>
        <time>2020-05-29T10:23:29.462Z</time>
      </trkpt>
      <trkpt lat="48.41382" lon="2.48384">
        <ele>101.2458190918</ele>
        <time>2020-05-29T10:23:31.070Z</time>
      </trkpt>
      <trkpt lat="48.41402" lon="2.4837">
        <ele>101.66132354736</ele>
        <time>2020-05-29T10:23:32.683Z</time>
      </trkpt>
      <trkpt lat="48.41408" lon="2.48372">
        <ele>102.4313583374</ele>
        <time>2020-05-29T10:23:34.297Z</time>
      </trkpt>
      <trkpt lat="48.4141" lon="2.4838">
        <ele>103.71699523926</ele>
        <time>2020-05-29T10:23:35.912Z</time>
      </trkpt>
      <trkpt lat="48.41392" lon="2.48433">
        <ele>107.03235626221</ele>
        <time>2020-05-29T10:23:37.535Z</time>
      </trkpt>
      <trkpt lat="48.41413" lon="2.48411">
        <ele>108.01007843018</ele>
        <time>2020-05-29T10:23:39.163Z</time>
      </trkpt>
      <trkpt lat="48.41419" lon="2.48415">
        <ele>109.15663909912</ele>
        <time>2020-05-29T10:23:40.793Z</time>
      </trkpt>
      <trkpt lat="48.41413" lon="2.48425">
        <ele>109.30043792725</ele>
        <time>2020-05-29T10:23:42.424Z</time>
      </trkpt>
      <trkpt lat="48.41412" lon="2.48444">
        <ele>110.62810516357</ele>
        <time>2020-05-29T10:23:44.058Z</time>
      </trkpt>
      <trkpt lat="48.41393" lon="2.48512">
        <ele>112.48438262939</ele>
        <time>2020-05-29T10:23:45.702Z</time>
      </trkpt>
      <trkpt lat="48.41388" lon="2.48519">
        <ele>111.90734100342</ele>
        <time>2020-05-29T10:23:47.347Z</time>
      </trkpt>
      <trkpt lat="48.41385" lon="2.48547">
        <ele>112.51694488525</ele>
        <time>2020-05-29T10:23:48.996Z</time>
      </trkpt>
      <trkpt lat="48.41376" lon="2.48579">
        <ele>114.00028991699</ele>
        <time>2020-05-29T10:23:50.649Z</time>
      </trkpt>
      <trkpt lat="48.41378" lon="2.48612">
        <ele>115.1561050415</ele>
        <time>2020-05-29T10:23:52.307Z</time>
      </trkpt>
      <trkpt lat="48.41355" lon="2.48652">
        <ele>118.66608428955</ele>
        <time>2020-05-29T10:23:53.972Z</time>
      </trkpt>
      <trkpt lat="48.41341" lon="2.48667">
        <ele>118.27323150635</ele>
        <time>2020-05-29T10:23:55.640Z</time>
      </trkpt>
      <trkpt lat="48.41338" lon="2.48692">
        <ele>118.49405670166</ele>
        <time>2020-05-29T10:23:57.312Z</time>
      </trkpt>
      <trkpt lat="48.4133" lon="2.4871">
        <ele>117.28064727783</ele>
        <time>2020-05-29T10:23:58.987Z</time>
      </trkpt>
      <trkpt lat="48.41317" lon="2.48714">
        <ele>114.46318054199</ele>
        <time>2020-05-29T10:24:00.664Z</time>
      </trkpt>
      <trkpt lat="48.41306" lon="2.48738">
        <ele>113.17065429688</ele>
        <time>2020-05-29T10:24:02.345Z</time>
      </trkpt>
      <trkpt lat="48.41295" lon="2.48798">
        <ele>112.09703063965</ele>
        <time>2020-05-29T10:24:04.034Z</time>
      </trkpt>
      <trkpt lat="48.41305" lon="2.48844">
        <ele>114.35652923584</ele>
        <time>2020-05-29T10:24:05.730Z</time>
      </trkpt>
      <trkpt lat="48.413" lon="2.48911">
        <ele>114.68213653564</ele>
        <time>2020-05-29T10:24:07.435Z</time>
      </trkpt>
      <trkpt lat="48.41305" lon="2.4892">
        <ele>115.66719818115</ele>
        <time>2020-05-29T10:24:09.141Z</time>
      </trkpt>
      <trkpt lat="48.41301" lon="2.48937">
        <ele>115.21826934814</ele>
        <time>2020-05-29T10:24:10.850Z</time>
      </trkpt>
      <trkpt lat="48.413" lon="2.48959">
        <ele>115.57507324219</ele>
        <time>2020-05-29T10:24:12.562Z</time>
      </trkpt>
      <trkpt lat="48.41304" lon="2.48977">
        <ele>116.75682830811</ele>
        <time>2020-05-29T10:24:14.276Z</time>
      </trkpt>
      <trkpt lat="48.41302" lon="2.48996">
        <ele>117.16683197021</ele>
        <time>2020-05-29T10:24:15.993Z</time>
      </trkpt>
      <trkpt lat="48.41292" lon="2.4903">
        <ele>116.04112243652</ele>
        <time>2020-05-29T10:24:17.715Z</time>
      </trkpt>
      <trkpt lat="48.4129" lon="2.49063">
        <ele>117.84085845947</ele>
        <time>2020-05-29T10:24:19.441Z</time>
      </trkpt>
      <trkpt lat="48.41278" lon="2.49095">
        <ele>118.17947387695</ele>
        <time>2020-05-29T10:24:21.172Z</time>
      </trkpt>
      <trkpt lat="48.41274" lon="2.49115">
        <ele>119.46584320068</ele>
        <time>2020-05-29T10:24:22.906Z</time>
      </trkpt>
      <trkpt lat="48.41265" lon="2.49134">
        <ele>120.53418731689</ele>
        <time>2020-05-29T10:24:24.643Z</time>
      </trkpt>
      <trkpt lat="48.41263" lon="2.49151">
        <ele>121.3041229248</ele>
        <time>2020-05-29T10:24:26.382Z</time>
      </trkpt>
      <trkpt lat="48.41248" lon="2.49176">
        <ele>120.11855316162</ele>
        <time>2020-05-29T10:24:28.126Z</time>
      </trkpt>
      <trkpt lat="48.41211" lon="2.49217">
        <ele>115.17220306396</ele>
        <time>2020-05-29T10:24:29.879Z</time>
      </trkpt>
      <trkpt lat="48.41218" lon="2.49235">
        <ele>117.24737548828</ele>
        <time>2020-05-29T10:24:31.635Z</time>
      </trkpt>
      <trkpt lat="48.41218" lon="2.49254">
        <ele>118.20021820068</ele>
        <time>2020-05-29T10:24:33.393Z</time>
      </trkpt>
      <trkpt lat="48.41204" lon="2.49327">
        <ele>119.48411560059</ele>
        <time>2020-05-29T10:24:35.161Z</time>
      </trkpt>
      <trkpt lat="48.41193" lon="2.49351">
        <ele>118.94403076172</ele>
        <time>2020-05-29T10:24:36.933Z</time>
      </trkpt>
      <trkpt lat="48.41177" lon="2.49362">
        <ele>118.2783203125</ele>
        <time>2020-05-29T10:24:38.709Z</time>
      </trkpt>
      <trkpt lat="48.41171" lon="2.49379">
        <ele>118.16046142578</ele>
        <time>2020-05-29T10:24:40.487Z</time>
      </trkpt>
      <trkpt lat="48.41169" lon="2.49432">
        <ele>117.51276397705</ele>
        <time>2020-05-29T10:24:42.272Z</time>
      </trkpt>
      <trkpt lat="48.41176" lon="2.4946">
        <ele>117.59059906006</ele>
        <time>2020-05-29T10:24:44.061Z</time>
      </trkpt>
      <trkpt lat="48.41169" lon="2.49496">
        <ele>115.13874053955</ele>
        <time>2020-05-29T10:24:45.855Z</time>
      </trkpt>
      <trkpt lat="48.41172" lon="2.49505">
        <ele>114.95804595947</ele>
        <time>2020-05-29T10:24:47.651Z</time>
      </trkpt>
      <trkpt lat="48.41225" lon="2.4955">
        <ele>116.95571136475</ele>
        <time>2020-05-29T10:24:49.459Z</time>
      </trkpt>
      <trkpt lat="48.41241" lon="2.49551">
        <ele>117.89640045166</ele>
        <time>2020-05-29T10:24:51.270Z</time>
      </trkpt>
      <trkpt lat="48.4126" lon="2.49561">
        <ele>118.34583282471</ele>
        <time>2020-05-29T10:24:53.085Z</time>
      </trkpt>
      <trkpt lat="48.4128" lon="2.49579">
        <ele>118.78675079346</ele>
        <time>2020-05-29T10:24:54.905Z</time>
      </trkpt>
      <trkpt lat="48.41332" lon="2.49586">
        <ele>121.2752456665</ele>
        <time>2020-05-29T10:24:56.735Z</time>
      </trkpt>
      <trkpt lat="48.41332" lon="2.496">
        <ele>121.60007476807</ele>
        <time>2020-05-29T10:24:58.567Z</time>
      </trkpt>
      <trkpt lat="48.41322" lon="2.49615">
        <ele>121.49205780029</ele>
        <time>2020-05-29T10:25:00.402Z</time>
      </trkpt>
      <trkpt lat="48.41323" lon="2.4965">
        <ele>121.71786499023</ele>
        <time>2020-05-29T10:25:02.242Z</time>
      </trkpt>
      <trkpt lat="48.41305" lon="2.49672">
        <ele>118.22546386719</ele>
        <time>2020-05-29T10:25:04.086Z</time>
      </trkpt>
      <trkpt lat="48.41307" lon="2.49684">
        <ele>117.09349060059</ele>
        <time>2020-05-29T10:25:05.932Z</time>
      </trkpt>
      <trkpt lat="48.41321" lon="2.49691">
        <ele>118.04875946045</ele>
        <time>2020-05-29T10:25:07.781Z</time>
      </trkpt>
      <trkpt lat="48.4134" lon="2.49682">
        <ele>121.28649139404</ele>
        <time>2020-05-29T10:25:09.634Z</time>
      </trkpt>
      <trkpt lat="48.41361" lon="2.49682">
        <ele>123.72686004639</ele>
        <time>2020-05-29T10:25:11.491Z</time>
      </trkpt>
      <trkpt lat="48.41379" lon="2.49717">
        <ele>121.83702087402</ele>
        <time>2020-05-29T10:25:13.354Z</time>
      </trkpt>
      <trkpt lat="48.41394" lon="2.49723">
        <ele>122.83081054688</ele>
        <time>2020-05-29T10:25:15.220Z</time>
      </trkpt>
      <trkpt lat="48.41412" lon="2.49745">
        <ele>122.31310272217</ele>
        <time>2020-05-29T10:25:17.091Z</time>
      </trkpt>
      <trkpt lat="48.4143" lon="2.49786">
        <ele>120.32428741455</ele>
        <time>2020-05-29T10:25:18.968Z</time>
      </trkpt>
      <trkpt lat="48.41478" lon="2.49832">
        <ele>124.97122955322</ele>
        <time>2020-05-29T10:25:20.857Z</time>
      </trkpt>
      <trkpt lat="48.41492" lon="2.49837">
        <ele>126.98868560791</ele>
        <time>2020-05-29T10:25:22.748Z</time>
      </trkpt>
      <trkpt lat="48.415" lon="2.49833">
        <ele>129.14593505859</ele>
        <time>2020-05-29T10:25:24.641Z</time>
      </trkpt>
      <trkpt lat="48.41535" lon="2.4973">
        <ele>132.74363708496</ele>
        <time>2020-05-29T10:25:26.550Z</time>
      </trkpt>
      <trkpt lat="48.41565" lon="2.49579">
        <ele>128.26187133789</ele>
        <time>2020-05-29T10:25:28.479Z</time>
      </trkpt>
      <trkpt lat="48.41584" lon="2.49441">
        <ele>125.91181945801</ele>
        <time>2020-05-29T10:25:30.427Z</time>
      </trkpt>
      <trkpt lat="48.41591" lon="2.49408">
        <ele>126.01744842529</ele>
        <time>2020-05-29T10:25:32.380Z</time>
      </trkpt>
      <trkpt lat="48.41607" lon="2.49234">
        <ele>125.21956634521</ele>
        <time>2020-05-29T10:25:34.356Z</time>
      </trkpt>
      <trkpt lat="48.41637" lon="2.4906">
        <ele>124.69604492188</ele>
        <time>2020-05-29T10:25:36.356Z</time>
      </trkpt>
      <trkpt lat="48.41647" lon="2.48911">
        <ele>117.79946899414</ele>
        <time>2020-05-29T10:25:38.376Z</time>
      </trkpt>
      <trkpt lat="48.4166" lon="2.489">
        <ele>117.30348205566</ele>
        <time>2020-05-29T10:25:40.399Z</time>
      </trkpt>
      <trkpt lat="48.4167" lon="2.48905">
        <ele>118.31073760986</ele>
        <time>2020-05-29T10:25:42.424Z</time>
      </trkpt>
      <trkpt lat="48.41676" lon="2.48922">
        <ele>119.97375488281</ele>
        <time>2020-05-29T10:25:44.452Z</time>
      </trkpt>
      <trkpt lat="48.41682" lon="2.48907">
        <ele>118.88050842285</ele>
        <time>2020-05-29T10:25:46.482Z</time>
      </trkpt>
      <trkpt lat="48.41681" lon="2.48901">
        <ele>118.29706573486</ele>
        <time>2020-05-29T10:25:48.513Z</time>
      </trkpt>
      <trkpt lat="48.41689" lon="2.48884">
        <ele>115.22212219238</ele>
        <time>2020-05-29T10:25:50.547Z</time>
      </trkpt>
      <trkpt lat="48.41698" lon="2.48834">
        <ele>108.76494598389</ele>
        <time>2020-05-29T10:25:52.588Z</time>
      </trkpt>
      <trkpt lat="48.41718" lon="2.48768">
        <ele>97.664352416992</ele>
        <time>2020-05-29T10:25:54.639Z</time>
      </trkpt>
      <trkpt lat="48.41734" lon="2.48731">
        <ele>93.916053771973</ele>
        <time>2020-05-29T10:25:56.695Z</time>
      </trkpt>
      <trkpt lat="48.41746" lon="2.48707">
        <ele>92.154991149902</ele>
        <time>2020-05-29T10:25:58.755Z</time>
      </trkpt>
      <trkpt lat="48.41789" lon="2.48678">
        <ele>89.442031860352</ele>
        <time>2020-05-29T10:26:00.825Z</time>
      </trkpt>
      <trkpt lat="48.41799" lon="2.48744">
        <ele>90.776908874512</ele>
        <time>2020-05-29T10:26:02.904Z</time>
      </trkpt>
      <trkpt lat="48.41807" lon="2.48769">
        <ele>90.700012207031</ele>
        <time>2020-05-29T10:26:04.986Z</time>
      </trkpt>
      <trkpt lat="48.41812" lon="2.48803">
        <ele>91.308113098145</ele>
        <time>2020-05-29T10:26:07.073Z</time>
      </trkpt>
      <trkpt lat="48.41814" lon="2.48878">
        <ele>95.849411010742</ele>
        <time>2020-05-29T10:26:09.170Z</time>
      </trkpt>
      <trkpt lat="48.41808" lon="2.48904">
        <ele>98.50691986084</ele>
        <time>2020-05-29T10:26:11.271Z</time>
      </trkpt>
      <trkpt lat="48.41793" lon="2.48946">
        <ele>102.381690979</ele>
        <time>2020-05-29T10:26:13.378Z</time>
      </trkpt>
      <trkpt lat="48.41797" lon="2.49001">
        <ele>103.19541931152</ele>
        <time>2020-05-29T10:26:15.492Z</time>
      </trkpt>
      <trkpt lat="48.41804" lon="2.4903">
        <ele>101.9722366333</ele>
        <time>2020-05-29T10:26:17.610Z</time>
      </trkpt>
      <trkpt lat="48.41819" lon="2.49027">
        <ele>100.18798828125</ele>
        <time>2020-05-29T10:26:19.732Z</time>
      </trkpt>
      <trkpt lat="48.41832" lon="2.49018">
        <ele>98.808227539062</ele>
        <time>2020-05-29T10:26:21.856Z</time>
      </trkpt>
      <trkpt lat="48.41869" lon="2.49027">
        <ele>98.413444519043</ele>
        <time>2020-05-29T10:26:23.988Z</time>
      </trkpt>
      <trkpt lat="48.41905" lon="2.49049">
        <ele>101.34449768066</ele>
        <time>2020-05-29T10:26:26.128Z</time>
      </trkpt>
      <trkpt lat="48.41917" lon="2.49047">
        <ele>102.65718841553</ele>
        <time>2020-05-29T10:26:28.270Z</time>
      </trkpt>
      <trkpt lat="48.41926" lon="2.4904">
        <ele>103.8733291626</ele>
        <time>2020-05-29T10:26:30.414Z</time>
      </trkpt>
      <trkpt lat="48.41949" lon="2.49004">
        <ele>107.57382202148</ele>
        <time>2020-05-29T10:26:32.565Z</time>
      </trkpt>
      <trkpt lat="48.41973" lon="2.48917">
        <ele>111.48728942871</ele>
        <time>2020-05-29T10:26:34.728Z</time>
      </trkpt>
      <trkpt lat="48.41987" lon="2.48879">
        <ele>110.53415679932</ele>
        <time>2020-05-29T10:26:36.897Z</time>
      </trkpt>
      <trkpt lat="48.42025" lon="2.48876">
        <ele>114.80992126465</ele>
        <time>2020-05-29T10:26:39.074Z</time>
      </trkpt>
      <trkpt lat="48.42048" lon="2.48899">
        <ele>116.17882537842</ele>
        <time>2020-05-29T10:26:41.256Z</time>
      </trkpt>
      <trkpt lat="48.42055" lon="2.48923">
        <ele>116.32834625244</ele>
        <time>2020-05-29T10:26:43.442Z</time>
      </trkpt>
      <trkpt lat="48.42051" lon="2.48958">
        <ele>115.95314025879</ele>
        <time>2020-05-29T10:26:45.632Z</time>
      </trkpt>
      <trkpt lat="48.42049" lon="2.48989">
        <ele>115.84964752197</ele>
        <time>2020-05-29T10:26:47.826Z</time>
      </trkpt>
      <trkpt lat="48.42057" lon="2.49002">
        <ele>116.51278686523</ele>
        <time>2020-05-29T10:26:50.023Z</time>
      </trkpt>
      <trkpt lat="48.42043" lon="2.49075">
        <ele>117.03909301758</ele>
        <time>2020-05-29T10:26:52.230Z</time>
      </trkpt>
      <trkpt lat="48.42046" lon="2.49106">
        <ele>117.18050384521</ele>
        <time>2020-05-29T10:26:54.441Z</time>
      </trkpt>
      <trkpt lat="48.42038" lon="2.49148">
        <ele>116.81036376953</ele>
        <time>2020-05-29T10:26:56.658Z</time>
      </trkpt>
      <trkpt lat="48.42006" lon="2.49217">
        <ele>115.62567138672</ele>
        <time>2020-05-29T10:26:58.886Z</time>
      </trkpt>
      <trkpt lat="48.42006" lon="2.49235">
        <ele>115.99092102051</ele>
        <time>2020-05-29T10:27:01.117Z</time>
      </trkpt>
      <trkpt lat="48.42001" lon="2.4925">
        <ele>115.5506362915</ele>
        <time>2020-05-29T10:27:03.350Z</time>
      </trkpt>
      <trkpt lat="48.41991" lon="2.49257">
        <ele>114.0944442749</ele>
        <time>2020-05-29T10:27:05.585Z</time>
      </trkpt>
      <trkpt lat="48.41988" lon="2.4927">
        <ele>113.83277893066</ele>
        <time>2020-05-29T10:27:07.822Z</time>
      </trkpt>
      <trkpt lat="48.41986" lon="2.49299">
        <ele>114.22497558594</ele>
        <time>2020-05-29T10:27:10.063Z</time>
      </trkpt>
      <trkpt lat="48.41992" lon="2.49318">
        <ele>115.58852386475</ele>
        <time>2020-05-29T10:27:12.306Z</time>
      </trkpt>
      <trkpt lat="48.42022" lon="2.49368">
        <ele>118.76034545898</ele>
        <time>2020-05-29T10:27:14.558Z</time>
      </trkpt>
      <trkpt lat="48.42021" lon="2.494">
        <ele>118.06845092773</ele>
        <time>2020-05-29T10:27:16.815Z</time>
      </trkpt>
      <trkpt lat="48.42026" lon="2.49468">
        <ele>116.99839782715</ele>
        <time>2020-05-29T10:27:19.081Z</time>
      </trkpt>
      <trkpt lat="48.4203" lon="2.49483">
        <ele>116.66582489014</ele>
        <time>2020-05-29T10:27:21.349Z</time>
      </trkpt>
      <trkpt lat="48.42041" lon="2.49494">
        <ele>116.13996124268</ele>
        <time>2020-05-29T10:27:23.620Z</time>
      </trkpt>
      <trkpt lat="48.4205" lon="2.4952">
        <ele>116.9753112793</ele>
        <time>2020-05-29T10:27:25.895Z</time>
      </trkpt>
      <trkpt lat="48.42048" lon="2.49586">
        <ele>119.03723144531</ele>
        <time>2020-05-29T10:27:28.178Z</time>
      </trkpt>
      <trkpt lat="48.4203" lon="2.49709">
        <ele>120.82732391357</ele>
        <time>2020-05-29T10:27:30.478Z</time>
      </trkpt>
      <trkpt lat="48.4203" lon="2.49734">
        <ele>120.82118988037</ele>
        <time>2020-05-29T10:27:32.781Z</time>
      </trkpt>
      <trkpt lat="48.42088" lon="2.49743">
        <ele>120.13381958008</ele>
        <time>2020-05-29T10:27:35.096Z</time>
      </trkpt>
      <trkpt lat="48.4211" lon="2.49758">
        <ele>120.17617797852</ele>
        <time>2020-05-29T10:27:37.416Z</time>
      </trkpt>
      <trkpt lat="48.42119" lon="2.49776">
        <ele>120.31273651123</ele>
        <time>2020-05-29T10:27:39.739Z</time>
      </trkpt>
      <trkpt lat="48.42111" lon="2.4982">
        <ele>120.83910369873</ele>
        <time>2020-05-29T10:27:42.068Z</time>
      </trkpt>
      <trkpt lat="48.42128" lon="2.49879">
        <ele>118.67163085938</ele>
        <time>2020-05-29T10:27:44.406Z</time>
      </trkpt>
      <trkpt lat="48.42127" lon="2.49893">
        <ele>118.60556030273</ele>
        <time>2020-05-29T10:27:46.745Z</time>
      </trkpt>
      <trkpt lat="48.42115" lon="2.49923">
        <ele>118.86981201172</ele>
        <time>2020-05-29T10:27:49.089Z</time>
      </trkpt>
      <trkpt lat="48.42115" lon="2.49965">
        <ele>118.59326934814</ele>
        <time>2020-05-29T10:27:51.439Z</time>
      </trkpt>
      <trkpt lat="48.42108" lon="2.50007">
        <ele>119.43222045898</ele>
        <time>2020-05-29T10:27:53.795Z</time>
      </trkpt>
      <trkpt lat="48.421" lon="2.50015">
        <ele>120.50814056396</ele>
        <time>2020-05-29T10:27:56.152Z</time>
      </trkpt>
      <trkpt lat="48.42093" lon="2.50054">
        <ele>122.85420227051</ele>
        <time>2020-05-29T10:27:58.515Z</time>
      </trkpt>
      <trkpt lat="48.4208" lon="2.5007">
        <ele>124.24281311035</ele>
        <time>2020-05-29T10:28:00.881Z</time>
      </trkpt>
      <trkpt lat="48.42066" lon="2.50105">
        <ele>126.35692596436</ele>
        <time>2020-05-29T10:28:03.253Z</time>
      </trkpt>
      <trkpt lat="48.42064" lon="2.50139">
        <ele>127.59379577637</ele>
        <time>2020-05-29T10:28:05.629Z</time>
      </trkpt>
      <trkpt lat="48.42088" lon="2.50211">
        <ele>127.37522125244</ele>
        <time>2020-05-29T10:28:08.016Z</time>
      </trkpt>
      <trkpt lat="48.42094" lon="2.50247">
        <ele>127.21284484863</ele>
        <time>2020-05-29T10:28:10.408Z</time>
      </trkpt>
      <trkpt lat="48.42088" lon="2.50293">
        <ele>128.18244934082</ele>
        <time>2020-05-29T10:28:12.806Z</time>
      </trkpt>
      <trkpt lat="48.42096" lon="2.50316">
        <ele>127.94260406494</ele>
        <time>2020-05-29T10:28:15.208Z</time>
      </trkpt>
      <trkpt lat="48.42101" lon="2.50342">
        <ele>127.61813354492</ele>
        <time>2020-05-29T10:28:17.613Z</time>
      </trkpt>
      <trkpt lat="48.42103" lon="2.50385">
        <ele>126.8434753418</ele>
        <time>2020-05-29T10:28:20.024Z</time>
      </trkpt>
      <trkpt lat="48.42097" lon="2.50416">
        <ele>127.17794036865</ele>
        <time>2020-05-29T10:28:22.439Z</time>
      </trkpt>
      <trkpt lat="48.42074" lon="2.50471">
        <ele>128.30917358398</ele>
        <time>2020-05-29T10:28:24.863Z</time>
      </trkpt>
      <trkpt lat="48.42063" lon="2.50533">
        <ele>128.08203125</ele>
        <time>2020-05-29T10:28:27.295Z</time>
      </trkpt>
      <trkpt lat="48.42058" lon="2.50586">
        <ele>126.80738830566</ele>
        <time>2020-05-29T10:28:29.734Z</time>
      </trkpt>
      <trkpt lat="48.42045" lon="2.50629">
        <ele>127.87438964844</ele>
        <time>2020-05-29T10:28:32.180Z</time>
      </trkpt>
      <trkpt lat="48.42043" lon="2.50654">
        <ele>127.79716491699</ele>
        <time>2020-05-29T10:28:34.629Z</time>
      </trkpt>
      <trkpt lat="48.42051" lon="2.50669">
        <ele>126.62557220459</ele>
        <time>2020-05-29T10:28:37.081Z</time>
      </trkpt>
      <trkpt lat="48.4206" lon="2.50669">
        <ele>125.57767486572</ele>
        <time>2020-05-29T10:28:39.534Z</time>
      </trkpt>
      <trkpt lat="48.42085" lon="2.50685">
        <ele>121.710105896</ele>
        <time>2020-05-29T10:28:41.993Z</time>
      </trkpt>
      <trkpt lat="48.4211" lon="2.50679">
        <ele>117.95721435547</ele>
        <time>2020-05-29T10:28:44.457Z</time>
      </trkpt>
      <trkpt lat="48.4212" lon="2.50682">
        <ele>115.44761657715</ele>
        <time>2020-05-29T10:28:46.923Z</time>
      </trkpt>
      <trkpt lat="48.42166" lon="2.50656">
        <ele>106.547706604</ele>
        <time>2020-05-29T10:28:49.399Z</time>
      </trkpt>
      <trkpt lat="48.42171" lon="2.50648">
        <ele>105.83950805664</ele>
        <time>2020-05-29T10:28:51.876Z</time>
      </trkpt>
      <trkpt lat="48.422" lon="2.50639">
        <ele>102.84161376953</ele>
        <time>2020-05-29T10:28:54.359Z</time>
      </trkpt>
      <trkpt lat="48.42239" lon="2.50644">
        <ele>99.339797973633</ele>
        <time>2020-05-29T10:28:56.850Z</time>
      </trkpt>
      <trkpt lat="48.42246" lon="2.5066">
        <ele>97.971389770508</ele>
        <time>2020-05-29T10:28:59.344Z</time>
      </trkpt>
      <trkpt lat="48.42225" lon="2.50745">
        <ele>96.240234375</ele>
        <time>2020-05-29T10:29:01.850Z</time>
      </trkpt>
      <trkpt lat="48.42216" lon="2.50863">
        <ele>96.430633544922</ele>
        <time>2020-05-29T10:29:04.371Z</time>
      </trkpt>
      <trkpt lat="48.422" lon="2.50997">
        <ele>92.009414672852</ele>
        <time>2020-05-29T10:29:06.911Z</time>
      </trkpt>
      <trkpt lat="48.42186" lon="2.51055">
        <ele>87.453186035156</ele>
        <time>2020-05-29T10:29:09.459Z</time>
      </trkpt>
      <trkpt lat="48.4217" lon="2.51097">
        <ele>86.317276000977</ele>
        <time>2020-05-29T10:29:12.013Z</time>
      </trkpt>
      <trkpt lat="48.42179" lon="2.51148">
        <ele>84.590156555176</ele>
        <time>2020-05-29T10:29:14.574Z</time>
      </trkpt>
      <trkpt lat="48.42179" lon="2.51166">
        <ele>84.318603515625</ele>
        <time>2020-05-29T10:29:17.138Z</time>
      </trkpt>
      <trkpt lat="48.42174" lon="2.51182">
        <ele>84.746925354004</ele>
        <time>2020-05-29T10:29:19.704Z</time>
      </trkpt>
      <trkpt lat="48.4215" lon="2.51214">
        <ele>87.107414245605</ele>
        <time>2020-05-29T10:29:22.277Z</time>
      </trkpt>
      <trkpt lat="48.42139" lon="2.51248">
        <ele>86.181243896484</ele>
        <time>2020-05-29T10:29:24.855Z</time>
      </trkpt>
      <trkpt lat="48.42138" lon="2.51306">
        <ele>85.430618286133</ele>
        <time>2020-05-29T10:29:27.440Z</time>
      </trkpt>
      <trkpt lat="48.42127" lon="2.51416">
        <ele>85.669555664062</ele>
        <time>2020-05-29T10:29:30.040Z</time>
      </trkpt>
      <trkpt lat="48.42122" lon="2.51429">
        <ele>85.71556854248</ele>
        <time>2020-05-29T10:29:32.642Z</time>
      </trkpt>
      <trkpt lat="48.421" lon="2.51461">
        <ele>84.970321655273</ele>
        <time>2020-05-29T10:29:35.250Z</time>
      </trkpt>
      <trkpt lat="48.42096" lon="2.51482">
        <ele>85.175033569336</ele>
        <time>2020-05-29T10:29:37.861Z</time>
      </trkpt>
      <trkpt lat="48.42097" lon="2.51519">
        <ele>84.33455657959</ele>
        <time>2020-05-29T10:29:40.477Z</time>
      </trkpt>
      <trkpt lat="48.42106" lon="2.51562">
        <ele>83.815696716309</ele>
        <time>2020-05-29T10:29:43.099Z</time>
      </trkpt>
      <trkpt lat="48.42101" lon="2.5162">
        <ele>83.612968444824</ele>
        <time>2020-05-29T10:29:45.729Z</time>
      </trkpt>
      <trkpt lat="48.42085" lon="2.51724">
        <ele>83.323188781738</ele>
        <time>2020-05-29T10:29:48.373Z</time>
      </trkpt>
      <trkpt lat="48.42069" lon="2.51752">
        <ele>81.594329833984</ele>
        <time>2020-05-29T10:29:51.022Z</time>
      </trkpt>
      <trkpt lat="48.42063" lon="2.51742">
        <ele>82.40161895752</ele>
        <time>2020-05-29T10:29:53.673Z</time>
      </trkpt>
      <trkpt lat="48.42066" lon="2.51733">
        <ele>83.26587677002</ele>
        <time>2020-05-29T10:29:56.325Z</time>
      </trkpt>
      <trkpt lat="48.42047" lon="2.51701">
        <ele>86.154243469238</ele>
        <time>2020-05-29T10:29:58.983Z</time>
      </trkpt>
      <trkpt lat="48.41997" lon="2.51598">
        <ele>97.154487609863</ele>
        <time>2020-05-29T10:30:01.658Z</time>
      </trkpt>
      <trkpt lat="48.41955" lon="2.51559">
        <ele>105.13926696777</ele>
        <time>2020-05-29T10:30:04.343Z</time>
      </trkpt>
      <trkpt lat="48.4194" lon="2.51551">
        <ele>107.46315002441</ele>
        <time>2020-05-29T10:30:07.031Z</time>
      </trkpt>
      <trkpt lat="48.41904" lon="2.51538">
        <ele>112.49032592773</ele>
        <time>2020-05-29T10:30:09.726Z</time>
      </trkpt>
      <trkpt lat="48.41897" lon="2.51514">
        <ele>114.54106140137</ele>
        <time>2020-05-29T10:30:12.425Z</time>
      </trkpt>
      <trkpt lat="48.41869" lon="2.51472">
        <ele>119.91430664062</ele>
        <time>2020-05-29T10:30:15.132Z</time>
      </trkpt>
      <trkpt lat="48.41848" lon="2.51464">
        <ele>122.76595306396</ele>
        <time>2020-05-29T10:30:17.843Z</time>
      </trkpt>
      <trkpt lat="48.41834" lon="2.51445">
        <ele>123.8285369873</ele>
        <time>2020-05-29T10:30:20.558Z</time>
      </trkpt>
      <trkpt lat="48.41825" lon="2.51389">
        <ele>125.91219329834</ele>
        <time>2020-05-29T10:30:23.281Z</time>
      </trkpt>
      <trkpt lat="48.41833" lon="2.51387">
        <ele>125.72714996338</ele>
        <time>2020-05-29T10:30:26.005Z</time>
      </trkpt>
      <trkpt lat="48.41849" lon="2.51368">
        <ele>125.54602050781</ele>
        <time>2020-05-29T10:30:28.733Z</time>
      </trkpt>
      <trkpt lat="48.41877" lon="2.51293">
        <ele>124.32837677002</ele>
        <time>2020-05-29T10:30:31.473Z</time>
      </trkpt>
      <trkpt lat="48.41883" lon="2.51268">
        <ele>124.35842895508</ele>
        <time>2020-05-29T10:30:34.216Z</time>
      </trkpt>
      <trkpt lat="48.41891" lon="2.51252">
        <ele>124.44019317627</ele>
        <time>2020-05-29T10:30:36.962Z</time>
      </trkpt>
      <trkpt lat="48.41894" lon="2.51236">
        <ele>124.70880126953</ele>
        <time>2020-05-29T10:30:39.710Z</time>
      </trkpt>
      <trkpt lat="48.41895" lon="2.5117">
        <ele>125.21158599854</ele>
        <time>2020-05-29T10:30:42.467Z</time>
      </trkpt>
      <trkpt lat="48.41904" lon="2.51142">
        <ele>124.96542358398</ele>
        <time>2020-05-29T10:30:45.228Z</time>
      </trkpt>
      <trkpt lat="48.41907" lon="2.51117">
        <ele>125.09888458252</ele>
        <time>2020-05-29T10:30:47.993Z</time>
      </trkpt>
      <trkpt lat="48.41917" lon="2.51087">
        <ele>124.87753295898</ele>
        <time>2020-05-29T10:30:50.762Z</time>
      </trkpt>
      <trkpt lat="48.41949" lon="2.50945">
        <ele>124.97186279297</ele>
        <time>2020-05-29T10:30:53.551Z</time>
      </trkpt>
      <trkpt lat="48.41957" lon="2.50869">
        <ele>126.38151550293</ele>
        <time>2020-05-29T10:30:56.350Z</time>
      </trkpt>
      <trkpt lat="48.4197" lon="2.50833">
        <ele>126.26304626465</ele>
        <time>2020-05-29T10:30:59.155Z</time>
      </trkpt>
      <trkpt lat="48.41996" lon="2.50738">
        <ele>127.74612426758</ele>
        <time>2020-05-29T10:31:01.973Z</time>
      </trkpt>
      <trkpt lat="48.41997" lon="2.50723">
        <ele>128.53604125977</ele>
        <time>2020-05-29T10:31:04.793Z</time>
      </trkpt>
      <trkpt lat="48.42006" lon="2.50704">
        <ele>129.25729370117</ele>
        <time>2020-05-29T10:31:07.617Z</time>
      </trkpt>
      <trkpt lat="48.41971" lon="2.50707">
        <ele>130.72227478027</ele>
        <time>2020-05-29T10:31:10.447Z</time>
      </trkpt>
      <trkpt lat="48.41822" lon="2.5075">
        <ele>135.32539367676</ele>
        <time>2020-05-29T10:31:13.308Z</time>
      </trkpt>
      <trkpt lat="48.41707" lon="2.50791">
        <ele>133.50961303711</ele>
        <time>2020-05-29T10:31:16.193Z</time>
      </trkpt>
      <trkpt lat="48.41703" lon="2.50778">
        <ele>133.66107177734</ele>
        <time>2020-05-29T10:31:19.079Z</time>
      </trkpt>
      <trkpt lat="48.41707" lon="2.50662">
        <ele>135.58908081055</ele>
        <time>2020-05-29T10:31:21.981Z</time>
      </trkpt>
      <trkpt lat="48.41714" lon="2.50577">
        <ele>135.77151489258</ele>
        <time>2020-05-29T10:31:24.894Z</time>
      </trkpt>
      <trkpt lat="48.4172" lon="2.50549">
        <ele>135.90124511719</ele>
        <time>2020-05-29T10:31:27.811Z</time>
      </trkpt>
      <trkpt lat="48.41732" lon="2.50337">
        <ele>130.11608886719</ele>
        <time>2020-05-29T10:31:30.757Z</time>
      </trkpt>
      <trkpt lat="48.41748" lon="2.50196">
        <ele>128.66613769531</ele>
        <time>2020-05-29T10:31:33.722Z</time>
      </trkpt>
      <trkpt lat="48.41738" lon="2.50181">
        <ele>127.52591705322</ele>
        <time>2020-05-29T10:31:36.689Z</time>
      </trkpt>
      <trkpt lat="48.41703" lon="2.50165">
        <ele>123.92038726807</ele>
        <time>2020-05-29T10:31:39.664Z</time>
      </trkpt>
      <trkpt lat="48.41666" lon="2.50108">
        <ele>116.91086578369</ele>
        <time>2020-05-29T10:31:42.649Z</time>
      </trkpt>
      <trkpt lat="48.41647" lon="2.50087">
        <ele>113.13562774658</ele>
        <time>2020-05-29T10:31:45.639Z</time>
      </trkpt>
      <trkpt lat="48.4164" lon="2.50076">
        <ele>112.24164581299</ele>
        <time>2020-05-29T10:31:48.631Z</time>
      </trkpt>
      <trkpt lat="48.41633" lon="2.50078">
        <ele>111.09910583496</ele>
        <time>2020-05-29T10:31:51.625Z</time>
      </trkpt>
      <trkpt lat="48.41617" lon="2.50071">
        <ele>109.07169342041</ele>
        <time>2020-05-29T10:31:54.622Z</time>
      </trkpt>
      <trkpt lat="48.41614" lon="2.50078">
        <ele>108.34671783447</ele>
        <time>2020-05-29T10:31:57.620Z</time>
      </trkpt>
      <trkpt lat="48.41586" lon="2.50079">
        <ele>104.91190338135</ele>
        <time>2020-05-29T10:32:00.624Z</time>
      </trkpt>
      <trkpt lat="48.41581" lon="2.50073">
        <ele>104.87870788574</ele>
        <time>2020-05-29T10:32:03.629Z</time>
      </trkpt>
      <trkpt lat="48.41567" lon="2.5007">
        <ele>103.51885986328</ele>
        <time>2020-05-29T10:32:06.637Z</time>
      </trkpt>
      <trkpt lat="48.41548" lon="2.50076">
        <ele>100.60063934326</ele>
        <time>2020-05-29T10:32:09.649Z</time>
      </trkpt>
      <trkpt lat="48.41513" lon="2.50073">
        <ele>96.687606811523</ele>
        <time>2020-05-29T10:32:12.668Z</time>
      </trkpt>
      <trkpt lat="48.41496" lon="2.50061">
        <ele>95.7998046875</ele>
        <time>2020-05-29T10:32:15.690Z</time>
      </trkpt>
      <trkpt lat="48.41463" lon="2.50052">
        <ele>94.997581481934</ele>
        <time>2020-05-29T10:32:18.719Z</time>
      </trkpt>
      <trkpt lat="48.41451" lon="2.50042">
        <ele>94.735801696777</ele>
        <time>2020-05-29T10:32:21.751Z</time>
      </trkpt>
      <trkpt lat="48.41446" lon="2.50045">
        <ele>94.708251953125</ele>
        <time>2020-05-29T10:32:24.784Z</time>
      </trkpt>
      <trkpt lat="48.41455" lon="2.50081">
        <ele>95.251510620117</ele>
        <time>2020-05-29T10:32:27.822Z</time>
      </trkpt>
      <trkpt lat="48.41459" lon="2.50152">
        <ele>105.03932189941</ele>
        <time>2020-05-29T10:32:30.869Z</time>
      </trkpt>
      <trkpt lat="48.41456" lon="2.50186">
        <ele>109.78245544434</ele>
        <time>2020-05-29T10:32:33.921Z</time>
      </trkpt>
      <trkpt lat="48.41445" lon="2.50214">
        <ele>111.28741455078</ele>
        <time>2020-05-29T10:32:36.977Z</time>
      </trkpt>
      <trkpt lat="48.4144" lon="2.50252">
        <ele>113.38245391846</ele>
        <time>2020-05-29T10:32:40.038Z</time>
      </trkpt>
      <trkpt lat="48.41453" lon="2.50292">
        <ele>115.2325668335</ele>
        <time>2020-05-29T10:32:43.105Z</time>
      </trkpt>
      <trkpt lat="48.41457" lon="2.50327">
        <ele>116.31998443604</ele>
        <time>2020-05-29T10:32:46.177Z</time>
      </trkpt>
      <trkpt lat="48.41447" lon="2.50408">
        <ele>116.63357543945</ele>
        <time>2020-05-29T10:32:49.260Z</time>
      </trkpt>
      <trkpt lat="48.41477" lon="2.50544">
        <ele>118.5901260376</ele>
        <time>2020-05-29T10:32:52.362Z</time>
      </trkpt>
      <trkpt lat="48.41488" lon="2.50623">
        <ele>122.41430664062</ele>
        <time>2020-05-29T10:32:55.475Z</time>
      </trkpt>
      <trkpt lat="48.41499" lon="2.50677">
        <ele>124.42524719238</ele>
        <time>2020-05-29T10:32:58.595Z</time>
      </trkpt>
      <trkpt lat="48.41501" lon="2.50713">
        <ele>125.16681671143</ele>
        <time>2020-05-29T10:33:01.720Z</time>
      </trkpt>
      <trkpt lat="48.41498" lon="2.50743">
        <ele>125.82734680176</ele>
        <time>2020-05-29T10:33:04.849Z</time>
      </trkpt>
      <trkpt lat="48.41469" lon="2.50818">
        <ele>128.1799621582</ele>
        <time>2020-05-29T10:33:07.990Z</time>
      </trkpt>
      <trkpt lat="48.41454" lon="2.5081">
        <ele>128.28555297852</ele>
        <time>2020-05-29T10:33:11.134Z</time>
      </trkpt>
      <trkpt lat="48.41436" lon="2.50788">
        <ele>128.54591369629</ele>
        <time>2020-05-29T10:33:14.283Z</time>
      </trkpt>
      <trkpt lat="48.41407" lon="2.50774">
        <ele>129.00419616699</ele>
        <time>2020-05-29T10:33:17.438Z</time>
      </trkpt>
      <trkpt lat="48.41375" lon="2.50734">
        <ele>129.49229431152</ele>
        <time>2020-05-29T10:33:20.601Z</time>
      </trkpt>
      <trkpt lat="48.41347" lon="2.50688">
        <ele>129.24102783203</ele>
        <time>2020-05-29T10:33:23.772Z</time>
      </trkpt>
      <trkpt lat="48.41309" lon="2.5068">
        <ele>128.67926025391</ele>
        <time>2020-05-29T10:33:26.951Z</time>
      </trkpt>
      <trkpt lat="48.41268" lon="2.50647">
        <ele>128.73377990723</ele>
        <time>2020-05-29T10:33:30.139Z</time>
      </trkpt>
      <trkpt lat="48.41234" lon="2.50628">
        <ele>126.78425598145</ele>
        <time>2020-05-29T10:33:33.335Z</time>
      </trkpt>
      <trkpt lat="48.41223" lon="2.50607">
        <ele>126.59982299805</ele>
        <time>2020-05-29T10:33:36.534Z</time>
      </trkpt>
      <trkpt lat="48.41201" lon="2.50603">
        <ele>124.89196014404</ele>
        <time>2020-05-29T10:33:39.738Z</time>
      </trkpt>
      <trkpt lat="48.41195" lon="2.50595">
        <ele>124.71440887451</ele>
        <time>2020-05-29T10:33:42.943Z</time>
      </trkpt>
      <trkpt lat="48.4119" lon="2.50596">
        <ele>124.29198455811</ele>
        <time>2020-05-29T10:33:46.149Z</time>
      </trkpt>
      <trkpt lat="48.41185" lon="2.50607">
        <ele>123.68758392334</ele>
        <time>2020-05-29T10:33:49.357Z</time>
      </trkpt>
      <trkpt lat="48.41147" lon="2.50603">
        <ele>116.03485107422</ele>
        <time>2020-05-29T10:33:52.573Z</time>
      </trkpt>
      <trkpt lat="48.41143" lon="2.50616">
        <ele>114.82646179199</ele>
        <time>2020-05-29T10:33:55.790Z</time>
      </trkpt>
      <trkpt lat="48.41148" lon="2.50635">
        <ele>115.43203735352</ele>
        <time>2020-05-29T10:33:59.010Z</time>
      </trkpt>
      <trkpt lat="48.41166" lon="2.50685">
        <ele>117.3980255127</ele>
        <time>2020-05-29T10:34:02.238Z</time>
      </trkpt>
      <trkpt lat="48.41198" lon="2.50731">
        <ele>118.80377197266</ele>
        <time>2020-05-29T10:34:05.475Z</time>
      </trkpt>
      <trkpt lat="48.41211" lon="2.50757">
        <ele>118.47839355469</ele>
        <time>2020-05-29T10:34:08.716Z</time>
      </trkpt>
      <trkpt lat="48.41228" lon="2.50767">
        <ele>120.12557220459</ele>
        <time>2020-05-29T10:34:11.961Z</time>
      </trkpt>
      <trkpt lat="48.41236" lon="2.50777">
        <ele>120.52330780029</ele>
        <time>2020-05-29T10:34:15.208Z</time>
      </trkpt>
      <trkpt lat="48.41251" lon="2.50779">
        <ele>122.42319488525</ele>
        <time>2020-05-29T10:34:18.458Z</time>
      </trkpt>
      <trkpt lat="48.41267" lon="2.50806">
        <ele>122.7727432251</ele>
        <time>2020-05-29T10:34:21.713Z</time>
      </trkpt>
      <trkpt lat="48.41274" lon="2.50807">
        <ele>123.42129516602</ele>
        <time>2020-05-29T10:34:24.969Z</time>
      </trkpt>
      <trkpt lat="48.41283" lon="2.508">
        <ele>124.74152374268</ele>
        <time>2020-05-29T10:34:28.227Z</time>
      </trkpt>
      <trkpt lat="48.41331" lon="2.50814">
        <ele>128.40135192871</ele>
        <time>2020-05-29T10:34:31.495Z</time>
      </trkpt>
      <trkpt lat="48.41347" lon="2.50853">
        <ele>126.91479492188</ele>
        <time>2020-05-29T10:34:34.769Z</time>
      </trkpt>
      <trkpt lat="48.41342" lon="2.50898">
        <ele>122.22519683838</ele>
        <time>2020-05-29T10:34:38.049Z</time>
      </trkpt>
      <trkpt lat="48.41346" lon="2.50936">
        <ele>119.58123779297</ele>
        <time>2020-05-29T10:34:41.334Z</time>
      </trkpt>
      <trkpt lat="48.4137" lon="2.50997">
        <ele>119.05400848389</ele>
        <time>2020-05-29T10:34:44.629Z</time>
      </trkpt>
      <trkpt lat="48.41367" lon="2.51018">
        <ele>118.21353149414</ele>
        <time>2020-05-29T10:34:47.926Z</time>
      </trkpt>
      <trkpt lat="48.41372" lon="2.51047">
        <ele>119.96076965332</ele>
        <time>2020-05-29T10:34:51.228Z</time>
      </trkpt>
      <trkpt lat="48.41381" lon="2.51069">
        <ele>121.62754058838</ele>
        <time>2020-05-29T10:34:54.533Z</time>
      </trkpt>
      <trkpt lat="48.41376" lon="2.51094">
        <ele>121.99102783203</ele>
        <time>2020-05-29T10:34:57.841Z</time>
      </trkpt>
      <trkpt lat="48.41373" lon="2.51121">
        <ele>122.0955581665</ele>
        <time>2020-05-29T10:35:01.153Z</time>
      </trkpt>
      <trkpt lat="48.41361" lon="2.51152">
        <ele>122.24217987061</ele>
        <time>2020-05-29T10:35:04.470Z</time>
      </trkpt>
      <trkpt lat="48.41361" lon="2.51175">
        <ele>122.57552337646</ele>
        <time>2020-05-29T10:35:07.790Z</time>
      </trkpt>
      <trkpt lat="48.41343" lon="2.5119">
        <ele>121.56871795654</ele>
        <time>2020-05-29T10:35:11.114Z</time>
      </trkpt>
      <trkpt lat="48.41342" lon="2.512">
        <ele>121.47559356689</ele>
        <time>2020-05-29T10:35:14.439Z</time>
      </trkpt>
      <trkpt lat="48.41328" lon="2.51213">
        <ele>119.873878479</ele>
        <time>2020-05-29T10:35:17.767Z</time>
      </trkpt>
      <trkpt lat="48.41317" lon="2.51217">
        <ele>118.48877716064</ele>
        <time>2020-05-29T10:35:21.098Z</time>
      </trkpt>
      <trkpt lat="48.41305" lon="2.51211">
        <ele>117.17952728271</ele>
        <time>2020-05-29T10:35:24.431Z</time>
      </trkpt>
      <trkpt lat="48.41269" lon="2.51163">
        <ele>111.36639404297</ele>
        <time>2020-05-29T10:35:27.774Z</time>
      </trkpt>
      <trkpt lat="48.41236" lon="2.51151">
        <ele>105.61681365967</ele>
        <time>2020-05-29T10:35:31.124Z</time>
      </trkpt>
      <trkpt lat="48.41224" lon="2.51139">
        <ele>103.46992492676</ele>
        <time>2020-05-29T10:35:34.476Z</time>
      </trkpt>
      <trkpt lat="48.41218" lon="2.51138">
        <ele>102.33393859863</ele>
        <time>2020-05-29T10:35:37.830Z</time>
      </trkpt>
      <trkpt lat="48.41212" lon="2.51126">
        <ele>101.15390014648</ele>
        <time>2020-05-29T10:35:41.186Z</time>
      </trkpt>
      <trkpt lat="48.41204" lon="2.5112">
        <ele>99.510848999023</ele>
        <time>2020-05-29T10:35:44.544Z</time>
      </trkpt>
      <trkpt lat="48.41194" lon="2.51096">
        <ele>97.406410217285</ele>
        <time>2020-05-29T10:35:47.905Z</time>
      </trkpt>
      <trkpt lat="48.41162" lon="2.51088">
        <ele>98.433029174805</ele>
        <time>2020-05-29T10:35:51.273Z</time>
      </trkpt>
      <trkpt lat="48.4116" lon="2.51079">
        <ele>99.019218444824</ele>
        <time>2020-05-29T10:35:54.642Z</time>
      </trkpt>
      <trkpt lat="48.4117" lon="2.51042">
        <ele>99.61156463623</ele>
        <time>2020-05-29T10:35:58.016Z</time>
      </trkpt>
      <trkpt lat="48.41189" lon="2.51028">
        <ele>99.410568237305</ele>
        <time>2020-05-29T10:36:01.395Z</time>
      </trkpt>
      <trkpt lat="48.41194" lon="2.51018">
        <ele>100.67218780518</ele>
        <time>2020-05-29T10:36:04.775Z</time>
      </trkpt>
      <trkpt lat="48.41208" lon="2.5101">
        <ele>101.23382568359</ele>
        <time>2020-05-29T10:36:08.158Z</time>
      </trkpt>
      <trkpt lat="48.41215" lon="2.50997">
        <ele>101.2105178833</ele>
        <time>2020-05-29T10:36:11.544Z</time>
      </trkpt>
      <trkpt lat="48.41312" lon="2.50932">
        <ele>116.12679290771</ele>
        <time>2020-05-29T10:36:14.951Z</time>
      </trkpt>
      <trkpt lat="48.41341" lon="2.50923">
        <ele>119.79454040527</ele>
        <time>2020-05-29T10:36:18.364Z</time>
      </trkpt>
      <trkpt lat="48.41343" lon="2.50929">
        <ele>119.69085693359</ele>
        <time>2020-05-29T10:36:21.778Z</time>
      </trkpt>
      <trkpt lat="48.41365" lon="2.50907">
        <ele>123.35378265381</ele>
        <time>2020-05-29T10:36:25.197Z</time>
      </trkpt>
      <trkpt lat="48.41458" lon="2.50875">
        <ele>129.86871337891</ele>
        <time>2020-05-29T10:36:28.635Z</time>
      </trkpt>
      <trkpt lat="48.41493" lon="2.50869">
        <ele>130.53218078613</ele>
        <time>2020-05-29T10:36:32.080Z</time>
      </trkpt>
      <trkpt lat="48.41531" lon="2.50849">
        <ele>129.1270904541</ele>
        <time>2020-05-29T10:36:35.533Z</time>
      </trkpt>
      <trkpt lat="48.4168" lon="2.50801">
        <ele>133.29454040527</ele>
        <time>2020-05-29T10:36:39.017Z</time>
      </trkpt>
      <trkpt lat="48.41675" lon="2.50932">
        <ele>134.36703491211</ele>
        <time>2020-05-29T10:36:42.518Z</time>
      </trkpt>
      <trkpt lat="48.4165" lon="2.51197">
        <ele>134.75648498535</ele>
        <time>2020-05-29T10:36:46.055Z</time>
      </trkpt>
      <trkpt lat="48.41635" lon="2.51317">
        <ele>132.30867004395</ele>
        <time>2020-05-29T10:36:49.608Z</time>
      </trkpt>
      <trkpt lat="48.41621" lon="2.51576">
        <ele>129.19982910156</ele>
        <time>2020-05-29T10:36:53.196Z</time>
      </trkpt>
      <trkpt lat="48.41627" lon="2.51601">
        <ele>128.21127319336</ele>
        <time>2020-05-29T10:36:56.787Z</time>
      </trkpt>
      <trkpt lat="48.41657" lon="2.51679">
        <ele>124.16329193115</ele>
        <time>2020-05-29T10:37:00.390Z</time>
      </trkpt>
      <trkpt lat="48.4167" lon="2.51728">
        <ele>123.40793609619</ele>
        <time>2020-05-29T10:37:04.000Z</time>
      </trkpt>
      <trkpt lat="48.41675" lon="2.51773">
        <ele>123.08106994629</ele>
        <time>2020-05-29T10:37:07.616Z</time>
      </trkpt>
      <trkpt lat="48.41686" lon="2.51799">
        <ele>122.84346008301</ele>
        <time>2020-05-29T10:37:11.236Z</time>
      </trkpt>
      <trkpt lat="48.41753" lon="2.51855">
        <ele>121.20946502686</ele>
        <time>2020-05-29T10:37:14.872Z</time>
      </trkpt>
      <trkpt lat="48.41762" lon="2.51868">
        <ele>121.36212158203</ele>
        <time>2020-05-29T10:37:18.510Z</time>
      </trkpt>
      <trkpt lat="48.41766" lon="2.51883">
        <ele>121.65808868408</ele>
        <time>2020-05-29T10:37:22.150Z</time>
      </trkpt>
      <trkpt lat="48.41772" lon="2.51985">
        <ele>122.11264038086</ele>
        <time>2020-05-29T10:37:25.804Z</time>
      </trkpt>
      <trkpt lat="48.41768" lon="2.52045">
        <ele>121.60971832275</ele>
        <time>2020-05-29T10:37:29.466Z</time>
      </trkpt>
      <trkpt lat="48.41776" lon="2.52092">
        <ele>119.4868850708</ele>
        <time>2020-05-29T10:37:33.135Z</time>
      </trkpt>
      <trkpt lat="48.41775" lon="2.52135">
        <ele>118.62349700928</ele>
        <time>2020-05-29T10:37:36.809Z</time>
      </trkpt>
      <trkpt lat="48.41765" lon="2.52174">
        <ele>119.00900268555</ele>
        <time>2020-05-29T10:37:40.489Z</time>
      </trkpt>
      <trkpt lat="48.41747" lon="2.52199">
        <ele>119.67334747314</ele>
        <time>2020-05-29T10:37:44.174Z</time>
      </trkpt>
      <trkpt lat="48.417" lon="2.52204">
        <ele>121.12699890137</ele>
        <time>2020-05-29T10:37:47.868Z</time>
      </trkpt>
      <trkpt lat="48.41645" lon="2.52206">
        <ele>121.08280944824</ele>
        <time>2020-05-29T10:37:51.573Z</time>
      </trkpt>
      <trkpt lat="48.41624" lon="2.52218">
        <ele>120.6939163208</ele>
        <time>2020-05-29T10:37:55.283Z</time>
      </trkpt>
      <trkpt lat="48.41597" lon="2.52261">
        <ele>120.15636444092</ele>
        <time>2020-05-29T10:37:59.001Z</time>
      </trkpt>
      <trkpt lat="48.41577" lon="2.52273">
        <ele>120.53359222412</ele>
        <time>2020-05-29T10:38:02.723Z</time>
      </trkpt>
      <trkpt lat="48.41543" lon="2.52281">
        <ele>121</ele>
        <time>2020-05-29T10:38:06.452Z</time>
      </trkpt>
      <trkpt lat="48.41534" lon="2.52295">
        <ele>121</ele>
        <time>2020-05-29T10:38:10.183Z</time>
      </trkpt>
      <trkpt lat="48.41521" lon="2.52297">
        <ele>121</ele>
        <time>2020-05-29T10:38:13.917Z</time>
      </trkpt>
      <trkpt lat="48.41495" lon="2.52286">
        <ele>120.75263214111</ele>
        <time>2020-05-29T10:38:17.656Z</time>
      </trkpt>
      <trkpt lat="48.41468" lon="2.52286">
        <ele>120.43635559082</ele>
        <time>2020-05-29T10:38:21.401Z</time>
      </trkpt>
      <trkpt lat="48.41439" lon="2.52256">
        <ele>120.09000396729</ele>
        <time>2020-05-29T10:38:25.153Z</time>
      </trkpt>
      <trkpt lat="48.41437" lon="2.52195">
        <ele>120.06134796143</ele>
        <time>2020-05-29T10:38:28.913Z</time>
      </trkpt>
      <trkpt lat="48.41411" lon="2.52148">
        <ele>119.52041625977</ele>
        <time>2020-05-29T10:38:32.681Z</time>
      </trkpt>
      <trkpt lat="48.41413" lon="2.52135">
        <ele>119.23734283447</ele>
        <time>2020-05-29T10:38:36.451Z</time>
      </trkpt>
      <trkpt lat="48.4141" lon="2.52098">
        <ele>118.34531402588</ele>
        <time>2020-05-29T10:38:40.226Z</time>
      </trkpt>
      <trkpt lat="48.41418" lon="2.52037">
        <ele>115.19515228271</ele>
        <time>2020-05-29T10:38:44.009Z</time>
      </trkpt>
      <trkpt lat="48.41407" lon="2.5202">
        <ele>114.15529632568</ele>
        <time>2020-05-29T10:38:47.795Z</time>
      </trkpt>
      <trkpt lat="48.4141" lon="2.51996">
        <ele>112.58773803711</ele>
        <time>2020-05-29T10:38:51.584Z</time>
      </trkpt>
      <trkpt lat="48.41401" lon="2.5194">
        <ele>108.28253173828</ele>
        <time>2020-05-29T10:38:55.381Z</time>
      </trkpt>
      <trkpt lat="48.41378" lon="2.51905">
        <ele>105.63416290283</ele>
        <time>2020-05-29T10:38:59.185Z</time>
      </trkpt>
      <trkpt lat="48.41358" lon="2.5189">
        <ele>104.35858917236</ele>
        <time>2020-05-29T10:39:02.993Z</time>
      </trkpt>
      <trkpt lat="48.41348" lon="2.5187">
        <ele>103.30229187012</ele>
        <time>2020-05-29T10:39:06.805Z</time>
      </trkpt>
      <trkpt lat="48.41354" lon="2.51833">
        <ele>102.26477050781</ele>
        <time>2020-05-29T10:39:10.622Z</time>
      </trkpt>
      <trkpt lat="48.41352" lon="2.51825">
        <ele>102.07158660889</ele>
        <time>2020-05-29T10:39:14.440Z</time>
      </trkpt>
      <trkpt lat="48.41327" lon="2.51803">
        <ele>99.792572021484</ele>
        <time>2020-05-29T10:39:18.264Z</time>
      </trkpt>
      <trkpt lat="48.4132" lon="2.5179">
        <ele>99.103485107422</ele>
        <time>2020-05-29T10:39:22.090Z</time>
      </trkpt>
      <trkpt lat="48.41292" lon="2.51756">
        <ele>96.335807800293</ele>
        <time>2020-05-29T10:39:25.923Z</time>
      </trkpt>
      <trkpt lat="48.41262" lon="2.51701">
        <ele>94.502838134766</ele>
        <time>2020-05-29T10:39:29.766Z</time>
      </trkpt>
      <trkpt lat="48.4123" lon="2.51697">
        <ele>93.799385070801</ele>
        <time>2020-05-29T10:39:33.615Z</time>
      </trkpt>
      <trkpt lat="48.41229" lon="2.5169">
        <ele>93.846145629883</ele>
        <time>2020-05-29T10:39:37.465Z</time>
      </trkpt>
      <trkpt lat="48.41247" lon="2.51666">
        <ele>94.725776672363</ele>
        <time>2020-05-29T10:39:41.320Z</time>
      </trkpt>
      <trkpt lat="48.41262" lon="2.51622">
        <ele>101.89633178711</ele>
        <time>2020-05-29T10:39:45.181Z</time>
      </trkpt>
      <trkpt lat="48.41257" lon="2.51613">
        <ele>102.9443359375</ele>
        <time>2020-05-29T10:39:49.044Z</time>
      </trkpt>
      <trkpt lat="48.41272" lon="2.51585">
        <ele>108.33668518066</ele>
        <time>2020-05-29T10:39:52.912Z</time>
      </trkpt>
      <trkpt lat="48.41286" lon="2.51572">
        <ele>111.5422744751</ele>
        <time>2020-05-29T10:39:56.783Z</time>
      </trkpt>
      <trkpt lat="48.41292" lon="2.51572">
        <ele>112.07025909424</ele>
        <time>2020-05-29T10:40:00.655Z</time>
      </trkpt>
      <trkpt lat="48.41305" lon="2.51562">
        <ele>114.78946685791</ele>
        <time>2020-05-29T10:40:04.530Z</time>
      </trkpt>
      <trkpt lat="48.41317" lon="2.51547">
        <ele>118.0895614624</ele>
        <time>2020-05-29T10:40:08.408Z</time>
      </trkpt>
      <trkpt lat="48.41334" lon="2.51545">
        <ele>119.0417175293</ele>
        <time>2020-05-29T10:40:12.290Z</time>
      </trkpt>
      <trkpt lat="48.41339" lon="2.51539">
        <ele>119.99448394775</ele>
        <time>2020-05-29T10:40:16.173Z</time>
      </trkpt>
      <trkpt lat="48.41346" lon="2.51564">
        <ele>116.73584747314</ele>
        <time>2020-05-29T10:40:20.059Z</time>
      </trkpt>
      <trkpt lat="48.41355" lon="2.51571">
        <ele>116.58287811279</ele>
        <time>2020-05-29T10:40:23.947Z</time>
      </trkpt>
      <trkpt lat="48.41371" lon="2.51573">
        <ele>118.19776916504</ele>
        <time>2020-05-29T10:40:27.839Z</time>
      </trkpt>
      <trkpt lat="48.41408" lon="2.51512">
        <ele>126.86567687988</ele>
        <time>2020-05-29T10:40:31.742Z</time>
      </trkpt>
      <trkpt lat="48.41417" lon="2.51488">
        <ele>128.07104492188</ele>
        <time>2020-05-29T10:40:35.648Z</time>
      </trkpt>
      <trkpt lat="48.41416" lon="2.51388">
        <ele>126.65008544922</ele>
        <time>2020-05-29T10:40:39.568Z</time>
      </trkpt>
      <trkpt lat="48.4142" lon="2.5138">
        <ele>126.55736541748</ele>
        <time>2020-05-29T10:40:43.489Z</time>
      </trkpt>
      <trkpt lat="48.41449" lon="2.51381">
        <ele>127.16991424561</ele>
        <time>2020-05-29T10:40:47.416Z</time>
      </trkpt>
      <trkpt lat="48.41499" lon="2.51346">
        <ele>130.55477905273</ele>
        <time>2020-05-29T10:40:51.354Z</time>
      </trkpt>
      <trkpt lat="48.41541" lon="2.51297">
        <ele>132.73825073242</ele>
        <time>2020-05-29T10:40:55.303Z</time>
      </trkpt>
      <trkpt lat="48.41571" lon="2.51276">
        <ele>133.35171508789</ele>
        <time>2020-05-29T10:40:59.258Z</time>
      </trkpt>
      <trkpt lat="48.41615" lon="2.51254">
        <ele>133.86152648926</ele>
        <time>2020-05-29T10:41:03.223Z</time>
      </trkpt>
      <trkpt lat="48.41638" lon="2.51255">
        <ele>133.82109069824</ele>
        <time>2020-05-29T10:41:07.192Z</time>
      </trkpt>
      <trkpt lat="48.4164" lon="2.51261">
        <ele>133.61172485352</ele>
        <time>2020-05-29T10:41:11.162Z</time>
      </trkpt>
      <trkpt lat="48.4164" lon="2.51301">
        <ele>132.40390014648</ele>
        <time>2020-05-29T10:41:15.137Z</time>
      </trkpt>
      <trkpt lat="48.41622" lon="2.51533">
        <ele>130.68016052246</ele>
        <time>2020-05-29T10:41:19.144Z</time>
      </trkpt>
      <trkpt lat="48.41622" lon="2.51569">
        <ele>129.42509460449</ele>
        <time>2020-05-29T10:41:23.155Z</time>
      </trkpt>
      <trkpt lat="48.41626" lon="2.51604">
        <ele>128.18493652344</ele>
        <time>2020-05-29T10:41:27.171Z</time>
      </trkpt>
      <trkpt lat="48.41669" lon="2.5173">
        <ele>123.40562438965</ele>
        <time>2020-05-29T10:41:31.206Z</time>
      </trkpt>
      <trkpt lat="48.41671" lon="2.51765">
        <ele>123.12773132324</ele>
        <time>2020-05-29T10:41:35.246Z</time>
      </trkpt>
      <trkpt lat="48.41681" lon="2.51794">
        <ele>123.01419067383</ele>
        <time>2020-05-29T10:41:39.290Z</time>
      </trkpt>
      <trkpt lat="48.41756" lon="2.51859">
        <ele>121.25170135498</ele>
        <time>2020-05-29T10:41:43.351Z</time>
      </trkpt>
      <trkpt lat="48.41763" lon="2.51874">
        <ele>121.51659393311</ele>
        <time>2020-05-29T10:41:47.415Z</time>
      </trkpt>
      <trkpt lat="48.41774" lon="2.51974">
        <ele>121.79957580566</ele>
        <time>2020-05-29T10:41:51.492Z</time>
      </trkpt>
      <trkpt lat="48.41771" lon="2.52032">
        <ele>121.58417510986</ele>
        <time>2020-05-29T10:41:55.577Z</time>
      </trkpt>
      <trkpt lat="48.41781" lon="2.52083">
        <ele>119.32939147949</ele>
        <time>2020-05-29T10:41:59.669Z</time>
      </trkpt>
      <trkpt lat="48.41777" lon="2.52143">
        <ele>118.13193511963</ele>
        <time>2020-05-29T10:42:03.769Z</time>
      </trkpt>
      <trkpt lat="48.41767" lon="2.52179">
        <ele>118.72278594971</ele>
        <time>2020-05-29T10:42:07.874Z</time>
      </trkpt>
      <trkpt lat="48.41745" lon="2.522">
        <ele>119.74454498291</ele>
        <time>2020-05-29T10:42:11.984Z</time>
      </trkpt>
      <trkpt lat="48.4172" lon="2.522">
        <ele>120.63516235352</ele>
        <time>2020-05-29T10:42:16.099Z</time>
      </trkpt>
      <trkpt lat="48.41698" lon="2.52206">
        <ele>121.14238739014</ele>
        <time>2020-05-29T10:42:20.219Z</time>
      </trkpt>
      <trkpt lat="48.41691" lon="2.52212">
        <ele>121.23118591309</ele>
        <time>2020-05-29T10:42:24.340Z</time>
      </trkpt>
      <trkpt lat="48.41652" lon="2.52352">
        <ele>120.36255645752</ele>
        <time>2020-05-29T10:42:28.482Z</time>
      </trkpt>
      <trkpt lat="48.41625" lon="2.5243">
        <ele>120</ele>
        <time>2020-05-29T10:42:32.635Z</time>
      </trkpt>
      <trkpt lat="48.4161" lon="2.52454">
        <ele>119.70107269287</ele>
        <time>2020-05-29T10:42:36.793Z</time>
      </trkpt>
      <trkpt lat="48.41608" lon="2.52467">
        <ele>119.50556945801</ele>
        <time>2020-05-29T10:42:40.953Z</time>
      </trkpt>
      <trkpt lat="48.4162" lon="2.525">
        <ele>119.25959014893</ele>
        <time>2020-05-29T10:42:45.118Z</time>
      </trkpt>
      <trkpt lat="48.41581" lon="2.52603">
        <ele>119.67617034912</ele>
        <time>2020-05-29T10:42:49.298Z</time>
      </trkpt>
      <trkpt lat="48.41548" lon="2.5265">
        <ele>120.39646148682</ele>
        <time>2020-05-29T10:42:53.487Z</time>
      </trkpt>
      <trkpt lat="48.41542" lon="2.52669">
        <ele>120.32556152344</ele>
        <time>2020-05-29T10:42:57.679Z</time>
      </trkpt>
      <trkpt lat="48.41552" lon="2.52708">
        <ele>120.54320526123</ele>
        <time>2020-05-29T10:43:01.877Z</time>
      </trkpt>
      <trkpt lat="48.41547" lon="2.52762">
        <ele>121.4767074585</ele>
        <time>2020-05-29T10:43:06.082Z</time>
      </trkpt>
      <trkpt lat="48.41541" lon="2.52781">
        <ele>121.2555770874</ele>
        <time>2020-05-29T10:43:10.290Z</time>
      </trkpt>
      <trkpt lat="48.4154" lon="2.52798">
        <ele>120.86738586426</ele>
        <time>2020-05-29T10:43:14.500Z</time>
      </trkpt>
      <trkpt lat="48.41536" lon="2.52808">
        <ele>120.63065338135</ele>
        <time>2020-05-29T10:43:18.712Z</time>
      </trkpt>
      <trkpt lat="48.41512" lon="2.52822">
        <ele>120.17447662354</ele>
        <time>2020-05-29T10:43:22.929Z</time>
      </trkpt>
      <trkpt lat="48.41494" lon="2.52844">
        <ele>119.54180908203</ele>
        <time>2020-05-29T10:43:27.150Z</time>
      </trkpt>
      <trkpt lat="48.4148" lon="2.52842">
        <ele>119.81002044678</ele>
        <time>2020-05-29T10:43:31.374Z</time>
      </trkpt>
      <trkpt lat="48.41475" lon="2.52853">
        <ele>119.11168670654</ele>
        <time>2020-05-29T10:43:35.600Z</time>
      </trkpt>
      <trkpt lat="48.4148" lon="2.52871">
        <ele>117.74629974365</ele>
        <time>2020-05-29T10:43:39.828Z</time>
      </trkpt>
      <trkpt lat="48.41498" lon="2.52898">
        <ele>115.58785247803</ele>
        <time>2020-05-29T10:43:44.062Z</time>
      </trkpt>
      <trkpt lat="48.41503" lon="2.5292">
        <ele>115.02327728271</ele>
        <time>2020-05-29T10:43:48.299Z</time>
      </trkpt>
      <trkpt lat="48.41498" lon="2.52942">
        <ele>113.88889312744</ele>
        <time>2020-05-29T10:43:52.539Z</time>
      </trkpt>
      <trkpt lat="48.415" lon="2.52951">
        <ele>112.99305725098</ele>
        <time>2020-05-29T10:43:56.780Z</time>
      </trkpt>
      <trkpt lat="48.41508" lon="2.52956">
        <ele>111.88883972168</ele>
        <time>2020-05-29T10:44:01.023Z</time>
      </trkpt>
      <trkpt lat="48.41518" lon="2.53011">
        <ele>107.30628967285</ele>
        <time>2020-05-29T10:44:05.273Z</time>
      </trkpt>
      <trkpt lat="48.41509" lon="2.53038">
        <ele>106.19486236572</ele>
        <time>2020-05-29T10:44:09.527Z</time>
      </trkpt>
      <trkpt lat="48.41511" lon="2.53062">
        <ele>104.17108154297</ele>
        <time>2020-05-29T10:44:13.785Z</time>
      </trkpt>
      <trkpt lat="48.41508" lon="2.53095">
        <ele>102.00155639648</ele>
        <time>2020-05-29T10:44:18.047Z</time>
      </trkpt>
      <trkpt lat="48.41475" lon="2.53303">
        <ele>92.085479736328</ele>
        <time>2020-05-29T10:44:22.337Z</time>
      </trkpt>
      <trkpt lat="48.41478" lon="2.53318">
        <ele>91.161064147949</ele>
        <time>2020-05-29T10:44:26.630Z</time>
      </trkpt>
      <trkpt lat="48.41509" lon="2.53387">
        <ele>84.079895019531</ele>
        <time>2020-05-29T10:44:30.934Z</time>
      </trkpt>
      <trkpt lat="48.41563" lon="2.53468">
        <ele>79.687271118164</ele>
        <time>2020-05-29T10:44:35.253Z</time>
      </trkpt>
      <trkpt lat="48.41612" lon="2.5349">
        <ele>78.185012817383</ele>
        <time>2020-05-29T10:44:39.582Z</time>
      </trkpt>
      <trkpt lat="48.41616" lon="2.53506">
        <ele>77.583335876465</ele>
        <time>2020-05-29T10:44:43.913Z</time>
      </trkpt>
      <trkpt lat="48.41542" lon="2.53598">
        <ele>79.253005981445</ele>
        <time>2020-05-29T10:44:48.264Z</time>
      </trkpt>
      <trkpt lat="48.41525" lon="2.53641">
        <ele>79.857444763184</ele>
        <time>2020-05-29T10:44:52.621Z</time>
      </trkpt>
      <trkpt lat="48.41516" lon="2.53645">
        <ele>80.247138977051</ele>
        <time>2020-05-29T10:44:56.980Z</time>
      </trkpt>
      <trkpt lat="48.41428" lon="2.53634">
        <ele>82.048828125</ele>
        <time>2020-05-29T10:45:01.357Z</time>
      </trkpt>
      <trkpt lat="48.41414" lon="2.53641">
        <ele>82.934623718262</ele>
        <time>2020-05-29T10:45:05.737Z</time>
      </trkpt>
      <trkpt lat="48.41377" lon="2.53685">
        <ele>85.378616333008</ele>
        <time>2020-05-29T10:45:10.126Z</time>
      </trkpt>
      <trkpt lat="48.41337" lon="2.53707">
        <ele>86.918510437012</ele>
        <time>2020-05-29T10:45:14.524Z</time>
      </trkpt>
      <trkpt lat="48.41312" lon="2.53734">
        <ele>86.441719055176</ele>
        <time>2020-05-29T10:45:18.928Z</time>
      </trkpt>
      <trkpt lat="48.41304" lon="2.53749">
        <ele>86.530113220215</ele>
        <time>2020-05-29T10:45:23.334Z</time>
      </trkpt>
      <trkpt lat="48.41257" lon="2.53788">
        <ele>85.853874206543</ele>
        <time>2020-05-29T10:45:27.751Z</time>
      </trkpt>
      <trkpt lat="48.41217" lon="2.5383">
        <ele>81.984596252441</ele>
        <time>2020-05-29T10:45:32.178Z</time>
      </trkpt>
      <trkpt lat="48.41191" lon="2.53879">
        <ele>81.868919372559</ele>
        <time>2020-05-29T10:45:36.613Z</time>
      </trkpt>
      <trkpt lat="48.41171" lon="2.53889">
        <ele>81.252891540527</ele>
        <time>2020-05-29T10:45:41.053Z</time>
      </trkpt>
      <trkpt lat="48.41104" lon="2.53908">
        <ele>78.10294342041</ele>
        <time>2020-05-29T10:45:45.506Z</time>
      </trkpt>
      <trkpt lat="48.41075" lon="2.53938">
        <ele>78.247512817383</ele>
        <time>2020-05-29T10:45:49.966Z</time>
      </trkpt>
      <trkpt lat="48.40976" lon="2.53965">
        <ele>78.891510009766</ele>
        <time>2020-05-29T10:45:54.446Z</time>
      </trkpt>
      <trkpt lat="48.40921" lon="2.53972">
        <ele>79.343078613281</ele>
        <time>2020-05-29T10:45:58.938Z</time>
      </trkpt>
      <trkpt lat="48.40866" lon="2.53993">
        <ele>78.390594482422</ele>
        <time>2020-05-29T10:46:03.441Z</time>
      </trkpt>
      <trkpt lat="48.40792" lon="2.54035">
        <ele>78.072387695312</ele>
        <time>2020-05-29T10:46:07.960Z</time>
      </trkpt>
      <trkpt lat="48.40735" lon="2.54077">
        <ele>77.009460449219</ele>
        <time>2020-05-29T10:46:12.491Z</time>
      </trkpt>
      <trkpt lat="48.40624" lon="2.54145">
        <ele>80.634765625</ele>
        <time>2020-05-29T10:46:17.046Z</time>
      </trkpt>
      <trkpt lat="48.40619" lon="2.54162">
        <ele>81.598487854004</ele>
        <time>2020-05-29T10:46:21.604Z</time>
      </trkpt>
      <trkpt lat="48.40624" lon="2.54235">
        <ele>82.115539550781</ele>
        <time>2020-05-29T10:46:26.172Z</time>
      </trkpt>
      <trkpt lat="48.40649" lon="2.54343">
        <ele>82.894340515137</ele>
        <time>2020-05-29T10:46:30.755Z</time>
      </trkpt>
      <trkpt lat="48.40663" lon="2.54379">
        <ele>83.699478149414</ele>
        <time>2020-05-29T10:46:35.343Z</time>
      </trkpt>
      <trkpt lat="48.40672" lon="2.54427">
        <ele>84.57999420166</ele>
        <time>2020-05-29T10:46:39.938Z</time>
      </trkpt>
      <trkpt lat="48.40677" lon="2.54594">
        <ele>80.066398620605</ele>
        <time>2020-05-29T10:46:44.555Z</time>
      </trkpt>
      <trkpt lat="48.4066" lon="2.54648">
        <ele>80.069061279297</ele>
        <time>2020-05-29T10:46:49.180Z</time>
      </trkpt>
      <trkpt lat="48.40651" lon="2.54725">
        <ele>80.994735717773</ele>
        <time>2020-05-29T10:46:53.816Z</time>
      </trkpt>
      <trkpt lat="48.40506" lon="2.54885">
        <ele>80.328002929688</ele>
        <time>2020-05-29T10:46:58.488Z</time>
      </trkpt>
      <trkpt lat="48.40497" lon="2.54901">
        <ele>80.642372131348</ele>
        <time>2020-05-29T10:47:03.162Z</time>
      </trkpt>
      <trkpt lat="48.40477" lon="2.54967">
        <ele>79.891639709473</ele>
        <time>2020-05-29T10:47:07.846Z</time>
      </trkpt>
      <trkpt lat="48.4047" lon="2.55004">
        <ele>81.985221862793</ele>
        <time>2020-05-29T10:47:12.535Z</time>
      </trkpt>
      <trkpt lat="48.40436" lon="2.55053">
        <ele>86.260040283203</ele>
        <time>2020-05-29T10:47:17.234Z</time>
      </trkpt>
      <trkpt lat="48.40415" lon="2.55144">
        <ele>87.075859069824</ele>
        <time>2020-05-29T10:47:21.946Z</time>
      </trkpt>
      <trkpt lat="48.4041" lon="2.55185">
        <ele>86.179336547852</ele>
        <time>2020-05-29T10:47:26.663Z</time>
      </trkpt>
      <trkpt lat="48.40395" lon="2.55234">
        <ele>86.954872131348</ele>
        <time>2020-05-29T10:47:31.387Z</time>
      </trkpt>
      <trkpt lat="48.40383" lon="2.553">
        <ele>87.089714050293</ele>
        <time>2020-05-29T10:47:36.120Z</time>
      </trkpt>
      <trkpt lat="48.4036" lon="2.55368">
        <ele>87.114944458008</ele>
        <time>2020-05-29T10:47:40.864Z</time>
      </trkpt>
      <trkpt lat="48.40336" lon="2.55387">
        <ele>86.381126403809</ele>
        <time>2020-05-29T10:47:45.613Z</time>
      </trkpt>
      <trkpt lat="48.40323" lon="2.55411">
        <ele>84.446838378906</ele>
        <time>2020-05-29T10:47:50.366Z</time>
      </trkpt>
      <trkpt lat="48.40292" lon="2.55428">
        <ele>82.083854675293</ele>
        <time>2020-05-29T10:47:55.126Z</time>
      </trkpt>
      <trkpt lat="48.40267" lon="2.55427">
        <ele>81.488998413086</ele>
        <time>2020-05-29T10:47:59.891Z</time>
      </trkpt>
      <trkpt lat="48.40251" lon="2.55435">
        <ele>80.266304016113</ele>
        <time>2020-05-29T10:48:04.659Z</time>
      </trkpt>
      <trkpt lat="48.40233" lon="2.55456">
        <ele>78.180465698242</ele>
        <time>2020-05-29T10:48:09.432Z</time>
      </trkpt>
      <trkpt lat="48.40231" lon="2.55472">
        <ele>77.344268798828</ele>
        <time>2020-05-29T10:48:14.207Z</time>
      </trkpt>
      <trkpt lat="48.40233" lon="2.55486">
        <ele>77.181144714355</ele>
        <time>2020-05-29T10:48:18.984Z</time>
      </trkpt>
      <trkpt lat="48.40294" lon="2.55628">
        <ele>76.708297729492</ele>
        <time>2020-05-29T10:48:23.783Z</time>
      </trkpt>
      <trkpt lat="48.40328" lon="2.55688">
        <ele>77.243644714355</ele>
        <time>2020-05-29T10:48:28.593Z</time>
      </trkpt>
      <trkpt lat="48.40331" lon="2.55704">
        <ele>77.211364746094</ele>
        <time>2020-05-29T10:48:33.405Z</time>
      </trkpt>
      <trkpt lat="48.40323" lon="2.55719">
        <ele>77.30126953125</ele>
        <time>2020-05-29T10:48:38.220Z</time>
      </trkpt>
      <trkpt lat="48.4025" lon="2.55777">
        <ele>77.526481628418</ele>
        <time>2020-05-29T10:48:43.051Z</time>
      </trkpt>
      <trkpt lat="48.40236" lon="2.55795">
        <ele>78.033638000488</ele>
        <time>2020-05-29T10:48:47.886Z</time>
      </trkpt>
      <trkpt lat="48.40232" lon="2.55818">
        <ele>78.408737182617</ele>
        <time>2020-05-29T10:48:52.724Z</time>
      </trkpt>
      <trkpt lat="48.40241" lon="2.55904">
        <ele>76.945259094238</ele>
        <time>2020-05-29T10:48:57.574Z</time>
      </trkpt>
      <trkpt lat="48.40265" lon="2.56025">
        <ele>73.715538024902</ele>
        <time>2020-05-29T10:49:02.440Z</time>
      </trkpt>
      <trkpt lat="48.40276" lon="2.56065">
        <ele>73.623115539551</ele>
        <time>2020-05-29T10:49:07.312Z</time>
      </trkpt>
      <trkpt lat="48.4029" lon="2.56087">
        <ele>73.910888671875</ele>
        <time>2020-05-29T10:49:12.188Z</time>
      </trkpt>
      <trkpt lat="48.40365" lon="2.56297">
        <ele>78.665153503418</ele>
        <time>2020-05-29T10:49:17.096Z</time>
      </trkpt>
      <trkpt lat="48.40422" lon="2.5643">
        <ele>79.521514892578</ele>
        <time>2020-05-29T10:49:22.025Z</time>
      </trkpt>
      <trkpt lat="48.40457" lon="2.56499">
        <ele>80.915512084961</ele>
        <time>2020-05-29T10:49:26.966Z</time>
      </trkpt>
      <trkpt lat="48.40505" lon="2.566">
        <ele>80</ele>
        <time>2020-05-29T10:49:31.923Z</time>
      </trkpt>
      <trkpt lat="48.40546" lon="2.56716">
        <ele>82.838851928711</ele>
        <time>2020-05-29T10:49:36.898Z</time>
      </trkpt>
      <trkpt lat="48.40581" lon="2.56801">
        <ele>84.17936706543</ele>
        <time>2020-05-29T10:49:41.886Z</time>
      </trkpt>
      <trkpt lat="48.40669" lon="2.57076">
        <ele>84.15412902832</ele>
        <time>2020-05-29T10:49:46.915Z</time>
      </trkpt>
      <trkpt lat="48.40712" lon="2.57178">
        <ele>83.991767883301</ele>
        <time>2020-05-29T10:49:51.960Z</time>
      </trkpt>
      <trkpt lat="48.40734" lon="2.57267">
        <ele>85.244956970215</ele>
        <time>2020-05-29T10:49:57.017Z</time>
      </trkpt>
      <trkpt lat="48.40757" lon="2.5732">
        <ele>84.246337890625</ele>
        <time>2020-05-29T10:50:02.083Z</time>
      </trkpt>
      <trkpt lat="48.40792" lon="2.57426">
        <ele>83.773193359375</ele>
        <time>2020-05-29T10:50:07.165Z</time>
      </trkpt>
      <trkpt lat="48.40801" lon="2.57461">
        <ele>83.905502319336</ele>
        <time>2020-05-29T10:50:12.251Z</time>
      </trkpt>
      <trkpt lat="48.40819" lon="2.5751">
        <ele>83.645301818848</ele>
        <time>2020-05-29T10:50:17.345Z</time>
      </trkpt>
      <trkpt lat="48.40838" lon="2.57546">
        <ele>83.87287902832</ele>
        <time>2020-05-29T10:50:22.445Z</time>
      </trkpt>
      <trkpt lat="48.40871" lon="2.57633">
        <ele>83.650733947754</ele>
        <time>2020-05-29T10:50:27.558Z</time>
      </trkpt>
      <trkpt lat="48.40883" lon="2.57652">
        <ele>83.609397888184</ele>
        <time>2020-05-29T10:50:32.675Z</time>
      </trkpt>
      <trkpt lat="48.40897" lon="2.577">
        <ele>82.955619812012</ele>
        <time>2020-05-29T10:50:37.799Z</time>
      </trkpt>
      <trkpt lat="48.40941" lon="2.5776">
        <ele>83.243698120117</ele>
        <time>2020-05-29T10:50:42.935Z</time>
      </trkpt>
      <trkpt lat="48.40966" lon="2.57806">
        <ele>83.814636230469</ele>
        <time>2020-05-29T10:50:48.079Z</time>
      </trkpt>
      <trkpt lat="48.40976" lon="2.57837">
        <ele>84.040428161621</ele>
        <time>2020-05-29T10:50:53.227Z</time>
      </trkpt>
      <trkpt lat="48.40996" lon="2.57865">
        <ele>84.169052124023</ele>
        <time>2020-05-29T10:50:58.381Z</time>
      </trkpt>
      <trkpt lat="48.41003" lon="2.57871">
        <ele>84.270721435547</ele>
        <time>2020-05-29T10:51:03.536Z</time>
      </trkpt>
      <trkpt lat="48.41016" lon="2.57902">
        <ele>84.196853637695</ele>
        <time>2020-05-29T10:51:08.696Z</time>
      </trkpt>
      <trkpt lat="48.41015" lon="2.57911">
        <ele>84.064559936523</ele>
        <time>2020-05-29T10:51:13.858Z</time>
      </trkpt>
      <trkpt lat="48.40975" lon="2.57928">
        <ele>84.355834960938</ele>
        <time>2020-05-29T10:51:19.028Z</time>
      </trkpt>
      <trkpt lat="48.40972" lon="2.57936">
        <ele>84.304344177246</ele>
        <time>2020-05-29T10:51:24.199Z</time>
      </trkpt>
      <trkpt lat="48.40969" lon="2.57962">
        <ele>84.256332397461</ele>
        <time>2020-05-29T10:51:29.374Z</time>
      </trkpt>
      <trkpt lat="48.40944" lon="2.58032">
        <ele>87.161483764648</ele>
        <time>2020-05-29T10:51:34.559Z</time>
      </trkpt>
      <trkpt lat="48.40932" lon="2.58048">
        <ele>88.111831665039</ele>
        <time>2020-05-29T10:51:39.747Z</time>
      </trkpt>
      <trkpt lat="48.40894" lon="2.58128">
        <ele>90.087959289551</ele>
        <time>2020-05-29T10:51:44.948Z</time>
      </trkpt>
      <trkpt lat="48.40872" lon="2.58239">
        <ele>93.696990966797</ele>
        <time>2020-05-29T10:51:50.165Z</time>
      </trkpt>
      <trkpt lat="48.40871" lon="2.58264">
        <ele>94.702476501465</ele>
        <time>2020-05-29T10:51:55.385Z</time>
      </trkpt>
      <trkpt lat="48.4088" lon="2.5832">
        <ele>97.791862487793</ele>
        <time>2020-05-29T10:52:00.613Z</time>
      </trkpt>
      <trkpt lat="48.40892" lon="2.58332">
        <ele>98.961647033691</ele>
        <time>2020-05-29T10:52:05.844Z</time>
      </trkpt>
      <trkpt lat="48.40912" lon="2.58339">
        <ele>100.13353729248</ele>
        <time>2020-05-29T10:52:11.079Z</time>
      </trkpt>
      <trkpt lat="48.40927" lon="2.58361">
        <ele>101.4266204834</ele>
        <time>2020-05-29T10:52:16.318Z</time>
      </trkpt>
      <trkpt lat="48.40934" lon="2.58384">
        <ele>101.66251373291</ele>
        <time>2020-05-29T10:52:21.560Z</time>
      </trkpt>
      <trkpt lat="48.40929" lon="2.58411">
        <ele>102.69495391846</ele>
        <time>2020-05-29T10:52:26.806Z</time>
      </trkpt>
      <trkpt lat="48.40931" lon="2.58418">
        <ele>102.92457580566</ele>
        <time>2020-05-29T10:52:32.053Z</time>
      </trkpt>
      <trkpt lat="48.40909" lon="2.58494">
        <ele>97.178382873535</ele>
        <time>2020-05-29T10:52:37.311Z</time>
      </trkpt>
      <trkpt lat="48.40902" lon="2.58523">
        <ele>97</ele>
        <time>2020-05-29T10:52:42.573Z</time>
      </trkpt>
      <trkpt lat="48.4086" lon="2.58541">
        <ele>97</ele>
        <time>2020-05-29T10:52:47.844Z</time>
      </trkpt>
      <trkpt lat="48.4085" lon="2.58572">
        <ele>97</ele>
        <time>2020-05-29T10:52:53.120Z</time>
      </trkpt>
      <trkpt lat="48.40838" lon="2.58593">
        <ele>97.470336914062</ele>
        <time>2020-05-29T10:52:58.399Z</time>
      </trkpt>
      <trkpt lat="48.4082" lon="2.58608">
        <ele>98.267517089844</ele>
        <time>2020-05-29T10:53:03.682Z</time>
      </trkpt>
      <trkpt lat="48.40807" lon="2.5863">
        <ele>99.796249389648</ele>
        <time>2020-05-29T10:53:08.969Z</time>
      </trkpt>
      <trkpt lat="48.40794" lon="2.58637">
        <ele>99.768501281738</ele>
        <time>2020-05-29T10:53:14.259Z</time>
      </trkpt>
      <trkpt lat="48.40775" lon="2.58655">
        <ele>100.43675994873</ele>
        <time>2020-05-29T10:53:19.554Z</time>
      </trkpt>
      <trkpt lat="48.40756" lon="2.58696">
        <ele>102.09580993652</ele>
        <time>2020-05-29T10:53:24.855Z</time>
      </trkpt>
      <trkpt lat="48.40745" lon="2.58703">
        <ele>101.22722625732</ele>
        <time>2020-05-29T10:53:30.159Z</time>
      </trkpt>
      <trkpt lat="48.4073" lon="2.58752">
        <ele>103.91075897217</ele>
        <time>2020-05-29T10:53:35.470Z</time>
      </trkpt>
      <trkpt lat="48.40736" lon="2.58776">
        <ele>107.2228012085</ele>
        <time>2020-05-29T10:53:40.784Z</time>
      </trkpt>
      <trkpt lat="48.40747" lon="2.58782">
        <ele>109.21642303467</ele>
        <time>2020-05-29T10:53:46.101Z</time>
      </trkpt>
      <trkpt lat="48.40753" lon="2.58804">
        <ele>112.24829864502</ele>
        <time>2020-05-29T10:53:51.421Z</time>
      </trkpt>
      <trkpt lat="48.40751" lon="2.58812">
        <ele>112.83861541748</ele>
        <time>2020-05-29T10:53:56.742Z</time>
      </trkpt>
      <trkpt lat="48.40716" lon="2.58827">
        <ele>112.78611755371</ele>
        <time>2020-05-29T10:54:02.070Z</time>
      </trkpt>
      <trkpt lat="48.40707" lon="2.58843">
        <ele>114.21305847168</ele>
        <time>2020-05-29T10:54:07.401Z</time>
      </trkpt>
      <trkpt lat="48.40708" lon="2.58909">
        <ele>120.41735839844</ele>
        <time>2020-05-29T10:54:12.741Z</time>
      </trkpt>
      <trkpt lat="48.40714" lon="2.58952">
        <ele>121.14083862305</ele>
        <time>2020-05-29T10:54:18.087Z</time>
      </trkpt>
      <trkpt lat="48.40735" lon="2.59001">
        <ele>121.91801452637</ele>
        <time>2020-05-29T10:54:23.440Z</time>
      </trkpt>
      <trkpt lat="48.40742" lon="2.59043">
        <ele>120.66480255127</ele>
        <time>2020-05-29T10:54:28.799Z</time>
      </trkpt>
      <trkpt lat="48.40751" lon="2.59073">
        <ele>120.02709960938</ele>
        <time>2020-05-29T10:54:34.163Z</time>
      </trkpt>
      <trkpt lat="48.40753" lon="2.59105">
        <ele>120.14897155762</ele>
        <time>2020-05-29T10:54:39.531Z</time>
      </trkpt>
      <trkpt lat="48.40749" lon="2.59112">
        <ele>120.18930053711</ele>
        <time>2020-05-29T10:54:44.900Z</time>
      </trkpt>
      <trkpt lat="48.40737" lon="2.59116">
        <ele>120.33904266357</ele>
        <time>2020-05-29T10:54:50.272Z</time>
      </trkpt>
      <trkpt lat="48.40729" lon="2.59138">
        <ele>120.4393081665</ele>
        <time>2020-05-29T10:54:55.647Z</time>
      </trkpt>
      <trkpt lat="48.40721" lon="2.5914">
        <ele>120.53021240234</ele>
        <time>2020-05-29T10:55:01.023Z</time>
      </trkpt>
      <trkpt lat="48.40706" lon="2.59156">
        <ele>120.71354675293</ele>
        <time>2020-05-29T10:55:06.403Z</time>
      </trkpt>
      <trkpt lat="48.40703" lon="2.59164">
        <ele>120.74311065674</ele>
        <time>2020-05-29T10:55:11.784Z</time>
      </trkpt>
      <trkpt lat="48.40687" lon="2.59179">
        <ele>120.67169189453</ele>
        <time>2020-05-29T10:55:17.169Z</time>
      </trkpt>
      <trkpt lat="48.40666" lon="2.59189">
        <ele>120.19694519043</ele>
        <time>2020-05-29T10:55:22.559Z</time>
      </trkpt>
      <trkpt lat="48.4066" lon="2.59202">
        <ele>119.94170379639</ele>
        <time>2020-05-29T10:55:27.951Z</time>
      </trkpt>
      <trkpt lat="48.4065" lon="2.59205">
        <ele>119.23603057861</ele>
        <time>2020-05-29T10:55:33.345Z</time>
      </trkpt>
      <trkpt lat="48.4064" lon="2.59232">
        <ele>119.83108520508</ele>
        <time>2020-05-29T10:55:38.743Z</time>
      </trkpt>
      <trkpt lat="48.40644" lon="2.59246">
        <ele>120.85334014893</ele>
        <time>2020-05-29T10:55:44.143Z</time>
      </trkpt>
      <trkpt lat="48.40641" lon="2.59293">
        <ele>122.03768920898</ele>
        <time>2020-05-29T10:55:49.549Z</time>
      </trkpt>
      <trkpt lat="48.40635" lon="2.59305">
        <ele>121.62664794922</ele>
        <time>2020-05-29T10:55:54.957Z</time>
      </trkpt>
      <trkpt lat="48.40632" lon="2.59345">
        <ele>121.03047943115</ele>
        <time>2020-05-29T10:56:00.370Z</time>
      </trkpt>
      <trkpt lat="48.40638" lon="2.59401">
        <ele>119.77500915527</ele>
        <time>2020-05-29T10:56:05.791Z</time>
      </trkpt>
      <trkpt lat="48.40648" lon="2.59431">
        <ele>119.81728363037</ele>
        <time>2020-05-29T10:56:11.216Z</time>
      </trkpt>
      <trkpt lat="48.40666" lon="2.59449">
        <ele>120.68747711182</ele>
        <time>2020-05-29T10:56:16.646Z</time>
      </trkpt>
      <trkpt lat="48.40679" lon="2.59458">
        <ele>121.33009338379</ele>
        <time>2020-05-29T10:56:22.079Z</time>
      </trkpt>
      <trkpt lat="48.40689" lon="2.59496">
        <ele>120.73157501221</ele>
        <time>2020-05-29T10:56:27.517Z</time>
      </trkpt>
      <trkpt lat="48.40688" lon="2.59521">
        <ele>121.3777923584</ele>
        <time>2020-05-29T10:56:32.958Z</time>
      </trkpt>
      <trkpt lat="48.40671" lon="2.59562">
        <ele>123.04361724854</ele>
        <time>2020-05-29T10:56:38.406Z</time>
      </trkpt>
      <trkpt lat="48.40651" lon="2.59578">
        <ele>122.68912506104</ele>
        <time>2020-05-29T10:56:43.858Z</time>
      </trkpt>
      <trkpt lat="48.40646" lon="2.59591">
        <ele>122.76281738281</ele>
        <time>2020-05-29T10:56:49.312Z</time>
      </trkpt>
      <trkpt lat="48.40622" lon="2.59694">
        <ele>123.79405212402</ele>
        <time>2020-05-29T10:56:54.781Z</time>
      </trkpt>
      <trkpt lat="48.40619" lon="2.59737">
        <ele>125.46485900879</ele>
        <time>2020-05-29T10:57:00.256Z</time>
      </trkpt>
      <trkpt lat="48.40614" lon="2.59748">
        <ele>126.12688446045</ele>
        <time>2020-05-29T10:57:05.733Z</time>
      </trkpt>
      <trkpt lat="48.40617" lon="2.59762">
        <ele>126.36346435547</ele>
        <time>2020-05-29T10:57:11.212Z</time>
      </trkpt>
      <trkpt lat="48.40614" lon="2.59777">
        <ele>126.8528213501</ele>
        <time>2020-05-29T10:57:16.693Z</time>
      </trkpt>
      <trkpt lat="48.40607" lon="2.59787">
        <ele>127.4602432251</ele>
        <time>2020-05-29T10:57:22.176Z</time>
      </trkpt>
      <trkpt lat="48.40595" lon="2.59824">
        <ele>128.7804107666</ele>
        <time>2020-05-29T10:57:27.664Z</time>
      </trkpt>
      <trkpt lat="48.40578" lon="2.59841">
        <ele>128.9015045166</ele>
        <time>2020-05-29T10:57:33.156Z</time>
      </trkpt>
      <trkpt lat="48.40511" lon="2.59929">
        <ele>129.07350158691</ele>
        <time>2020-05-29T10:57:38.666Z</time>
      </trkpt>
      <trkpt lat="48.40478" lon="2.59945">
        <ele>128.87619018555</ele>
        <time>2020-05-29T10:57:44.183Z</time>
      </trkpt>
      <trkpt lat="48.40463" lon="2.59965">
        <ele>128.93794250488</ele>
        <time>2020-05-29T10:57:49.704Z</time>
      </trkpt>
      <trkpt lat="48.40435" lon="2.5996">
        <ele>128.53959655762</ele>
        <time>2020-05-29T10:57:55.231Z</time>
      </trkpt>
      <trkpt lat="48.40422" lon="2.59943">
        <ele>128.18096923828</ele>
        <time>2020-05-29T10:58:00.761Z</time>
      </trkpt>
      <trkpt lat="48.40413" lon="2.59948">
        <ele>128.13592529297</ele>
        <time>2020-05-29T10:58:06.293Z</time>
      </trkpt>
      <trkpt lat="48.40394" lon="2.59973">
        <ele>128.20933532715</ele>
        <time>2020-05-29T10:58:11.830Z</time>
      </trkpt>
      <trkpt lat="48.4032" lon="2.59958">
        <ele>126.44686126709</ele>
        <time>2020-05-29T10:58:17.382Z</time>
      </trkpt>
      <trkpt lat="48.40293" lon="2.59978">
        <ele>126.46226501465</ele>
        <time>2020-05-29T10:58:22.940Z</time>
      </trkpt>
      <trkpt lat="48.40293" lon="2.59992">
        <ele>126.99577331543</ele>
        <time>2020-05-29T10:58:28.500Z</time>
      </trkpt>
      <trkpt lat="48.40277" lon="2.60017">
        <ele>127.49877166748</ele>
        <time>2020-05-29T10:58:34.065Z</time>
      </trkpt>
      <trkpt lat="48.40271" lon="2.60022">
        <ele>127.54844665527</ele>
        <time>2020-05-29T10:58:39.631Z</time>
      </trkpt>
      <trkpt lat="48.4026" lon="2.60061">
        <ele>128.55261230469</ele>
        <time>2020-05-29T10:58:45.203Z</time>
      </trkpt>
      <trkpt lat="48.40233" lon="2.60051">
        <ele>128.94059753418</ele>
        <time>2020-05-29T10:58:50.780Z</time>
      </trkpt>
      <trkpt lat="48.40197" lon="2.60061">
        <ele>130.60554504395</ele>
        <time>2020-05-29T10:58:56.365Z</time>
      </trkpt>
      <trkpt lat="48.40184" lon="2.60043">
        <ele>130.39013671875</ele>
        <time>2020-05-29T10:59:01.953Z</time>
      </trkpt>
      <trkpt lat="48.40175" lon="2.60007">
        <ele>129.27598571777</ele>
        <time>2020-05-29T10:59:07.546Z</time>
      </trkpt>
      <trkpt lat="48.40177" lon="2.59997">
        <ele>129.00556945801</ele>
        <time>2020-05-29T10:59:13.141Z</time>
      </trkpt>
      <trkpt lat="48.40173" lon="2.5999">
        <ele>129.04257202148</ele>
        <time>2020-05-29T10:59:18.737Z</time>
      </trkpt>
      <trkpt lat="48.40144" lon="2.59848">
        <ele>129.54922485352</ele>
        <time>2020-05-29T10:59:24.353Z</time>
      </trkpt>
      <trkpt lat="48.40139" lon="2.59835">
        <ele>129.48626708984</ele>
        <time>2020-05-29T10:59:29.971Z</time>
      </trkpt>
      <trkpt lat="48.40078" lon="2.59817">
        <ele>127.56353759766</ele>
        <time>2020-05-29T10:59:35.601Z</time>
      </trkpt>
      <trkpt lat="48.40054" lon="2.59823">
        <ele>125.81670379639</ele>
        <time>2020-05-29T10:59:41.236Z</time>
      </trkpt>
      <trkpt lat="48.40046" lon="2.59807">
        <ele>125.21451568604</ele>
        <time>2020-05-29T10:59:46.874Z</time>
      </trkpt>
      <trkpt lat="48.40022" lon="2.59677">
        <ele>124.46977996826</ele>
        <time>2020-05-29T10:59:52.530Z</time>
      </trkpt>
      <trkpt lat="48.40012" lon="2.59586">
        <ele>122.82032775879</ele>
        <time>2020-05-29T10:59:58.198Z</time>
      </trkpt>
      <trkpt lat="48.40013" lon="2.59559">
        <ele>122.29724121094</ele>
        <time>2020-05-29T11:00:03.870Z</time>
      </trkpt>
      <trkpt lat="48.40025" lon="2.59507">
        <ele>122.1736907959</ele>
        <time>2020-05-29T11:00:09.549Z</time>
      </trkpt>
      <trkpt lat="48.40052" lon="2.59436">
        <ele>126.11283111572</ele>
        <time>2020-05-29T11:00:15.239Z</time>
      </trkpt>
      <trkpt lat="48.40099" lon="2.59407">
        <ele>128.66673278809</ele>
        <time>2020-05-29T11:00:20.939Z</time>
      </trkpt>
      <trkpt lat="48.40122" lon="2.59381">
        <ele>126.14311981201</ele>
        <time>2020-05-29T11:00:26.645Z</time>
      </trkpt>
      <trkpt lat="48.40118" lon="2.59322">
        <ele>124.70915222168</ele>
        <time>2020-05-29T11:00:32.359Z</time>
      </trkpt>
      <trkpt lat="48.40123" lon="2.59288">
        <ele>122.69200134277</ele>
        <time>2020-05-29T11:00:38.077Z</time>
      </trkpt>
      <trkpt lat="48.40123" lon="2.59237">
        <ele>119.96732330322</ele>
        <time>2020-05-29T11:00:43.802Z</time>
      </trkpt>
      <trkpt lat="48.40127" lon="2.59233">
        <ele>119.31404876709</ele>
        <time>2020-05-29T11:00:49.528Z</time>
      </trkpt>
      <trkpt lat="48.40123" lon="2.59241">
        <ele>120.15478515625</ele>
        <time>2020-05-29T11:00:55.256Z</time>
      </trkpt>
      <trkpt lat="48.40151" lon="2.59292">
        <ele>120.40616607666</ele>
        <time>2020-05-29T11:01:00.993Z</time>
      </trkpt>
      <trkpt lat="48.40158" lon="2.59321">
        <ele>121.3245010376</ele>
        <time>2020-05-29T11:01:06.734Z</time>
      </trkpt>
      <trkpt lat="48.40145" lon="2.59365">
        <ele>123.76624298096</ele>
        <time>2020-05-29T11:01:12.481Z</time>
      </trkpt>
      <trkpt lat="48.40087" lon="2.59412">
        <ele>128.11990356445</ele>
        <time>2020-05-29T11:01:18.241Z</time>
      </trkpt>
      <trkpt lat="48.40051" lon="2.59435">
        <ele>125.98551177979</ele>
        <time>2020-05-29T11:01:24.009Z</time>
      </trkpt>
      <trkpt lat="48.40031" lon="2.59475">
        <ele>123.54991149902</ele>
        <time>2020-05-29T11:01:29.784Z</time>
      </trkpt>
      <trkpt lat="48.40003" lon="2.59476">
        <ele>121.3321685791</ele>
        <time>2020-05-29T11:01:35.564Z</time>
      </trkpt>
      <trkpt lat="48.39991" lon="2.59485">
        <ele>120.72861480713</ele>
        <time>2020-05-29T11:01:41.347Z</time>
      </trkpt>
      <trkpt lat="48.39978" lon="2.59482">
        <ele>120.39221954346</ele>
        <time>2020-05-29T11:01:47.133Z</time>
      </trkpt>
      <trkpt lat="48.39934" lon="2.59498">
        <ele>118.23085784912</ele>
        <time>2020-05-29T11:01:52.928Z</time>
      </trkpt>
      <trkpt lat="48.39878" lon="2.59452">
        <ele>119.82759094238</ele>
        <time>2020-05-29T11:01:58.736Z</time>
      </trkpt>
      <trkpt lat="48.39846" lon="2.59444">
        <ele>120.3568649292</ele>
        <time>2020-05-29T11:02:04.550Z</time>
      </trkpt>
      <trkpt lat="48.39815" lon="2.5945">
        <ele>119.82456970215</ele>
        <time>2020-05-29T11:02:10.370Z</time>
      </trkpt>
      <trkpt lat="48.39809" lon="2.5943">
        <ele>120.23719787598</ele>
        <time>2020-05-29T11:02:16.193Z</time>
      </trkpt>
      <trkpt lat="48.39779" lon="2.59388">
        <ele>117.65564727783</ele>
        <time>2020-05-29T11:02:22.024Z</time>
      </trkpt>
      <trkpt lat="48.3977" lon="2.59381">
        <ele>116.9115524292</ele>
        <time>2020-05-29T11:02:27.858Z</time>
      </trkpt>
      <trkpt lat="48.3975" lon="2.59374">
        <ele>113.02332305908</ele>
        <time>2020-05-29T11:02:33.696Z</time>
      </trkpt>
      <trkpt lat="48.39732" lon="2.59362">
        <ele>108.12504577637</ele>
        <time>2020-05-29T11:02:39.538Z</time>
      </trkpt>
      <trkpt lat="48.39716" lon="2.59363">
        <ele>104.84378814697</ele>
        <time>2020-05-29T11:02:45.383Z</time>
      </trkpt>
      <trkpt lat="48.39707" lon="2.5937">
        <ele>103.78845977783</ele>
        <time>2020-05-29T11:02:51.230Z</time>
      </trkpt>
      <trkpt lat="48.39678" lon="2.59349">
        <ele>96.148620605469</ele>
        <time>2020-05-29T11:02:57.083Z</time>
      </trkpt>
      <trkpt lat="48.39675" lon="2.59339">
        <ele>94.840049743652</ele>
        <time>2020-05-29T11:03:02.938Z</time>
      </trkpt>
      <trkpt lat="48.39673" lon="2.59343">
        <ele>95.063011169434</ele>
        <time>2020-05-29T11:03:08.793Z</time>
      </trkpt>
      <trkpt lat="48.39666" lon="2.59332">
        <ele>93.493865966797</ele>
        <time>2020-05-29T11:03:14.650Z</time>
      </trkpt>
      <trkpt lat="48.39327" lon="2.59136">
        <ele>103.53216552734</ele>
        <time>2020-05-29T11:03:20.580Z</time>
      </trkpt>
      <trkpt lat="48.39302" lon="2.59126">
        <ele>105.2456741333</ele>
        <time>2020-05-29T11:03:26.515Z</time>
      </trkpt>
      <trkpt lat="48.39205" lon="2.59156">
        <ele>117.37420654297</ele>
        <time>2020-05-29T11:03:32.470Z</time>
      </trkpt>
      <trkpt lat="48.39188" lon="2.59168">
        <ele>120.81446838379</ele>
        <time>2020-05-29T11:03:38.429Z</time>
      </trkpt>
      <trkpt lat="48.39053" lon="2.59209">
        <ele>124.24346923828</ele>
        <time>2020-05-29T11:03:44.415Z</time>
      </trkpt>
      <trkpt lat="48.39004" lon="2.59229">
        <ele>122.13857269287</ele>
        <time>2020-05-29T11:03:50.412Z</time>
      </trkpt>
      <trkpt lat="48.39001" lon="2.59247">
        <ele>122.22734832764</ele>
        <time>2020-05-29T11:03:56.411Z</time>
      </trkpt>
      <trkpt lat="48.38993" lon="2.59262">
        <ele>122.62377166748</ele>
        <time>2020-05-29T11:04:02.413Z</time>
      </trkpt>
      <trkpt lat="48.38973" lon="2.59278">
        <ele>123.46298980713</ele>
        <time>2020-05-29T11:04:08.419Z</time>
      </trkpt>
      <trkpt lat="48.38962" lon="2.59338">
        <ele>123.84271240234</ele>
        <time>2020-05-29T11:04:14.433Z</time>
      </trkpt>
      <trkpt lat="48.38949" lon="2.59386">
        <ele>123.62873077393</ele>
        <time>2020-05-29T11:04:20.454Z</time>
      </trkpt>
      <trkpt lat="48.3894" lon="2.59456">
        <ele>122.97256469727</ele>
        <time>2020-05-29T11:04:26.485Z</time>
      </trkpt>
      <trkpt lat="48.38935" lon="2.59475">
        <ele>122.87109375</ele>
        <time>2020-05-29T11:04:32.519Z</time>
      </trkpt>
      <trkpt lat="48.38931" lon="2.59479">
        <ele>122.73322296143</ele>
        <time>2020-05-29T11:04:38.554Z</time>
      </trkpt>
      <trkpt lat="48.38915" lon="2.5947">
        <ele>122.8282623291</ele>
        <time>2020-05-29T11:04:44.592Z</time>
      </trkpt>
      <trkpt lat="48.38911" lon="2.59473">
        <ele>122.90207672119</ele>
        <time>2020-05-29T11:04:50.631Z</time>
      </trkpt>
      <trkpt lat="48.38902" lon="2.59463">
        <ele>122.89091491699</ele>
        <time>2020-05-29T11:04:56.672Z</time>
      </trkpt>
      <trkpt lat="48.38899" lon="2.59414">
        <ele>122.44373321533</ele>
        <time>2020-05-29T11:05:02.719Z</time>
      </trkpt>
      <trkpt lat="48.38912" lon="2.59357">
        <ele>122.970703125</ele>
        <time>2020-05-29T11:05:08.774Z</time>
      </trkpt>
      <trkpt lat="48.38915" lon="2.5931">
        <ele>123.20320892334</ele>
        <time>2020-05-29T11:05:14.836Z</time>
      </trkpt>
      <trkpt lat="48.38932" lon="2.59252">
        <ele>123.00267791748</ele>
        <time>2020-05-29T11:05:20.906Z</time>
      </trkpt>
      <trkpt lat="48.38939" lon="2.59208">
        <ele>123.43966674805</ele>
        <time>2020-05-29T11:05:26.982Z</time>
      </trkpt>
      <trkpt lat="48.38938" lon="2.59166">
        <ele>123.70905303955</ele>
        <time>2020-05-29T11:05:33.064Z</time>
      </trkpt>
      <trkpt lat="48.38931" lon="2.59127">
        <ele>123.01303863525</ele>
        <time>2020-05-29T11:05:39.151Z</time>
      </trkpt>
      <trkpt lat="48.38932" lon="2.59076">
        <ele>122.19064331055</ele>
        <time>2020-05-29T11:05:45.245Z</time>
      </trkpt>
      <trkpt lat="48.38942" lon="2.59035">
        <ele>122.80268859863</ele>
        <time>2020-05-29T11:05:51.345Z</time>
      </trkpt>
      <trkpt lat="48.38942" lon="2.5901">
        <ele>123.33540344238</ele>
        <time>2020-05-29T11:05:57.448Z</time>
      </trkpt>
      <trkpt lat="48.38932" lon="2.58987">
        <ele>123.95119476318</ele>
        <time>2020-05-29T11:06:03.555Z</time>
      </trkpt>
      <trkpt lat="48.38937" lon="2.58962">
        <ele>123.50840759277</ele>
        <time>2020-05-29T11:06:09.665Z</time>
      </trkpt>
      <trkpt lat="48.38931" lon="2.58928">
        <ele>123.98699188232</ele>
        <time>2020-05-29T11:06:15.780Z</time>
      </trkpt>
      <trkpt lat="48.38933" lon="2.58854">
        <ele>123.10744476318</ele>
        <time>2020-05-29T11:06:21.905Z</time>
      </trkpt>
      <trkpt lat="48.38927" lon="2.58811">
        <ele>122.94422149658</ele>
        <time>2020-05-29T11:06:28.036Z</time>
      </trkpt>
      <trkpt lat="48.3893" lon="2.58779">
        <ele>122.9792175293</ele>
        <time>2020-05-29T11:06:34.171Z</time>
      </trkpt>
      <trkpt lat="48.38946" lon="2.58705">
        <ele>122.20627593994</ele>
        <time>2020-05-29T11:06:40.316Z</time>
      </trkpt>
      <trkpt lat="48.38947" lon="2.58664">
        <ele>122.79495239258</ele>
        <time>2020-05-29T11:06:46.467Z</time>
      </trkpt>
      <trkpt lat="48.3896" lon="2.58613">
        <ele>122.96711730957</ele>
        <time>2020-05-29T11:06:52.625Z</time>
      </trkpt>
      <trkpt lat="48.3897" lon="2.58587">
        <ele>123.1311340332</ele>
        <time>2020-05-29T11:06:58.787Z</time>
      </trkpt>
      <trkpt lat="48.38971" lon="2.58566">
        <ele>123.36019897461</ele>
        <time>2020-05-29T11:07:04.952Z</time>
      </trkpt>
      <trkpt lat="48.38978" lon="2.58558">
        <ele>122.95854187012</ele>
        <time>2020-05-29T11:07:11.119Z</time>
      </trkpt>
      <trkpt lat="48.38988" lon="2.58516">
        <ele>123.27101898193</ele>
        <time>2020-05-29T11:07:17.292Z</time>
      </trkpt>
      <trkpt lat="48.38998" lon="2.58499">
        <ele>122.96796417236</ele>
        <time>2020-05-29T11:07:23.468Z</time>
      </trkpt>
      <trkpt lat="48.39004" lon="2.58474">
        <ele>122.77155303955</ele>
        <time>2020-05-29T11:07:29.647Z</time>
      </trkpt>
      <trkpt lat="48.39008" lon="2.58438">
        <ele>123.59881591797</ele>
        <time>2020-05-29T11:07:35.831Z</time>
      </trkpt>
      <trkpt lat="48.39026" lon="2.58381">
        <ele>121.91207122803</ele>
        <time>2020-05-29T11:07:42.024Z</time>
      </trkpt>
      <trkpt lat="48.39023" lon="2.58309">
        <ele>122.5599822998</ele>
        <time>2020-05-29T11:07:48.226Z</time>
      </trkpt>
      <trkpt lat="48.39024" lon="2.58286">
        <ele>122.29297637939</ele>
        <time>2020-05-29T11:07:54.431Z</time>
      </trkpt>
      <trkpt lat="48.38999" lon="2.58235">
        <ele>124.18588256836</ele>
        <time>2020-05-29T11:08:00.645Z</time>
      </trkpt>
      <trkpt lat="48.39001" lon="2.58215">
        <ele>124.16456604004</ele>
        <time>2020-05-29T11:08:06.861Z</time>
      </trkpt>
      <trkpt lat="48.39019" lon="2.58143">
        <ele>123.43206787109</ele>
        <time>2020-05-29T11:08:13.088Z</time>
      </trkpt>
      <trkpt lat="48.39026" lon="2.58139">
        <ele>122.46542358398</ele>
        <time>2020-05-29T11:08:19.316Z</time>
      </trkpt>
      <trkpt lat="48.3904" lon="2.5811">
        <ele>120.32096099854</ele>
        <time>2020-05-29T11:08:25.549Z</time>
      </trkpt>
      <trkpt lat="48.39041" lon="2.58078">
        <ele>120.83715057373</ele>
        <time>2020-05-29T11:08:31.786Z</time>
      </trkpt>
      <trkpt lat="48.39047" lon="2.58063">
        <ele>119.84627532959</ele>
        <time>2020-05-29T11:08:38.026Z</time>
      </trkpt>
      <trkpt lat="48.39038" lon="2.57995">
        <ele>120.15250396729</ele>
        <time>2020-05-29T11:08:44.275Z</time>
      </trkpt>
      <trkpt lat="48.3904" lon="2.57963">
        <ele>119.48896789551</ele>
        <time>2020-05-29T11:08:50.528Z</time>
      </trkpt>
      <trkpt lat="48.39048" lon="2.57939">
        <ele>118.82543182373</ele>
        <time>2020-05-29T11:08:56.785Z</time>
      </trkpt>
      <trkpt lat="48.39043" lon="2.57902">
        <ele>120.15845489502</ele>
        <time>2020-05-29T11:09:03.047Z</time>
      </trkpt>
      <trkpt lat="48.39026" lon="2.57883">
        <ele>121.62732696533</ele>
        <time>2020-05-29T11:09:09.313Z</time>
      </trkpt>
      <trkpt lat="48.39007" lon="2.57851">
        <ele>122.89466094971</ele>
        <time>2020-05-29T11:09:15.585Z</time>
      </trkpt>
      <trkpt lat="48.39002" lon="2.57827">
        <ele>123.3288269043</ele>
        <time>2020-05-29T11:09:21.860Z</time>
      </trkpt>
      <trkpt lat="48.39005" lon="2.57769">
        <ele>123.34857940674</ele>
        <time>2020-05-29T11:09:28.143Z</time>
      </trkpt>
      <trkpt lat="48.39012" lon="2.57726">
        <ele>122.8727722168</ele>
        <time>2020-05-29T11:09:34.432Z</time>
      </trkpt>
      <trkpt lat="48.39026" lon="2.57688">
        <ele>121.54867553711</ele>
        <time>2020-05-29T11:09:40.727Z</time>
      </trkpt>
      <trkpt lat="48.39027" lon="2.57658">
        <ele>121.61310577393</ele>
        <time>2020-05-29T11:09:47.026Z</time>
      </trkpt>
      <trkpt lat="48.39036" lon="2.57644">
        <ele>121.17303466797</ele>
        <time>2020-05-29T11:09:53.327Z</time>
      </trkpt>
      <trkpt lat="48.39039" lon="2.5762">
        <ele>120.56762695312</ele>
        <time>2020-05-29T11:09:59.631Z</time>
      </trkpt>
      <trkpt lat="48.39041" lon="2.57508">
        <ele>117.33221435547</ele>
        <time>2020-05-29T11:10:05.950Z</time>
      </trkpt>
      <trkpt lat="48.39025" lon="2.57475">
        <ele>116.48818969727</ele>
        <time>2020-05-29T11:10:12.275Z</time>
      </trkpt>
      <trkpt lat="48.39028" lon="2.57467">
        <ele>116.60646057129</ele>
        <time>2020-05-29T11:10:18.601Z</time>
      </trkpt>
      <trkpt lat="48.39026" lon="2.57396">
        <ele>116.38149261475</ele>
        <time>2020-05-29T11:10:24.936Z</time>
      </trkpt>
      <trkpt lat="48.39032" lon="2.57382">
        <ele>116.62808227539</ele>
        <time>2020-05-29T11:10:31.274Z</time>
      </trkpt>
      <trkpt lat="48.39033" lon="2.57369">
        <ele>116.49171447754</ele>
        <time>2020-05-29T11:10:37.613Z</time>
      </trkpt>
      <trkpt lat="48.39059" lon="2.5731">
        <ele>116.47514343262</ele>
        <time>2020-05-29T11:10:43.962Z</time>
      </trkpt>
      <trkpt lat="48.39075" lon="2.57292">
        <ele>117.05657958984</ele>
        <time>2020-05-29T11:10:50.315Z</time>
      </trkpt>
      <trkpt lat="48.39071" lon="2.57257">
        <ele>115.83902740479</ele>
        <time>2020-05-29T11:10:56.673Z</time>
      </trkpt>
      <trkpt lat="48.39087" lon="2.57204">
        <ele>115.81073760986</ele>
        <time>2020-05-29T11:11:03.038Z</time>
      </trkpt>
      <trkpt lat="48.39097" lon="2.57193">
        <ele>117.18587493896</ele>
        <time>2020-05-29T11:11:09.406Z</time>
      </trkpt>
      <trkpt lat="48.3911" lon="2.57168">
        <ele>117.26391601562</ele>
        <time>2020-05-29T11:11:15.778Z</time>
      </trkpt>
      <trkpt lat="48.39116" lon="2.57164">
        <ele>117.31560516357</ele>
        <time>2020-05-29T11:11:22.152Z</time>
      </trkpt>
      <trkpt lat="48.3913" lon="2.57104">
        <ele>116.24080657959</ele>
        <time>2020-05-29T11:11:28.534Z</time>
      </trkpt>
      <trkpt lat="48.39135" lon="2.57045">
        <ele>115.69232177734</ele>
        <time>2020-05-29T11:11:34.924Z</time>
      </trkpt>
      <trkpt lat="48.39152" lon="2.56995">
        <ele>116.47720336914</ele>
        <time>2020-05-29T11:11:41.321Z</time>
      </trkpt>
      <trkpt lat="48.39165" lon="2.5697">
        <ele>116.82957458496</ele>
        <time>2020-05-29T11:11:47.723Z</time>
      </trkpt>
      <trkpt lat="48.39155" lon="2.56928">
        <ele>114.35845184326</ele>
        <time>2020-05-29T11:11:54.131Z</time>
      </trkpt>
      <trkpt lat="48.39155" lon="2.56913">
        <ele>113.99714660645</ele>
        <time>2020-05-29T11:12:00.541Z</time>
      </trkpt>
      <trkpt lat="48.39172" lon="2.56865">
        <ele>116.6236038208</ele>
        <time>2020-05-29T11:12:06.958Z</time>
      </trkpt>
      <trkpt lat="48.39176" lon="2.56771">
        <ele>116.88744354248</ele>
        <time>2020-05-29T11:12:13.387Z</time>
      </trkpt>
      <trkpt lat="48.39181" lon="2.56749">
        <ele>117.69648742676</ele>
        <time>2020-05-29T11:12:19.819Z</time>
      </trkpt>
      <trkpt lat="48.39194" lon="2.56724">
        <ele>115.18663787842</ele>
        <time>2020-05-29T11:12:26.256Z</time>
      </trkpt>
      <trkpt lat="48.39198" lon="2.56682">
        <ele>112.39841461182</ele>
        <time>2020-05-29T11:12:32.698Z</time>
      </trkpt>
      <trkpt lat="48.39207" lon="2.56644">
        <ele>110.32234191895</ele>
        <time>2020-05-29T11:12:39.146Z</time>
      </trkpt>
      <trkpt lat="48.39206" lon="2.56606">
        <ele>108.38597869873</ele>
        <time>2020-05-29T11:12:45.599Z</time>
      </trkpt>
      <trkpt lat="48.39192" lon="2.56574">
        <ele>108.33980560303</ele>
        <time>2020-05-29T11:12:52.057Z</time>
      </trkpt>
      <trkpt lat="48.3919" lon="2.56556">
        <ele>107.8245010376</ele>
        <time>2020-05-29T11:12:58.517Z</time>
      </trkpt>
      <trkpt lat="48.39194" lon="2.56535">
        <ele>107.52803039551</ele>
        <time>2020-05-29T11:13:04.980Z</time>
      </trkpt>
      <trkpt lat="48.39203" lon="2.56523">
        <ele>107.8126373291</ele>
        <time>2020-05-29T11:13:11.446Z</time>
      </trkpt>
      <trkpt lat="48.39207" lon="2.56492">
        <ele>108.1902923584</ele>
        <time>2020-05-29T11:13:17.916Z</time>
      </trkpt>
      <trkpt lat="48.39227" lon="2.56477">
        <ele>109.49956512451</ele>
        <time>2020-05-29T11:13:24.390Z</time>
      </trkpt>
      <trkpt lat="48.39239" lon="2.56433">
        <ele>109.6068572998</ele>
        <time>2020-05-29T11:13:30.871Z</time>
      </trkpt>
      <trkpt lat="48.39239" lon="2.56415">
        <ele>109.12682342529</ele>
        <time>2020-05-29T11:13:37.354Z</time>
      </trkpt>
      <trkpt lat="48.39246" lon="2.56387">
        <ele>109.09075164795</ele>
        <time>2020-05-29T11:13:43.841Z</time>
      </trkpt>
      <trkpt lat="48.39246" lon="2.56369">
        <ele>108.75043487549</ele>
        <time>2020-05-29T11:13:50.331Z</time>
      </trkpt>
      <trkpt lat="48.39253" lon="2.56335">
        <ele>109.78656005859</ele>
        <time>2020-05-29T11:13:56.825Z</time>
      </trkpt>
      <trkpt lat="48.39252" lon="2.56311">
        <ele>108.34092712402</ele>
        <time>2020-05-29T11:14:03.323Z</time>
      </trkpt>
      <trkpt lat="48.39245" lon="2.56305">
        <ele>106.65242004395</ele>
        <time>2020-05-29T11:14:09.822Z</time>
      </trkpt>
      <trkpt lat="48.39248" lon="2.56295">
        <ele>106.57598876953</ele>
        <time>2020-05-29T11:14:16.323Z</time>
      </trkpt>
      <trkpt lat="48.39245" lon="2.56288">
        <ele>105.56579589844</ele>
        <time>2020-05-29T11:14:22.825Z</time>
      </trkpt>
      <trkpt lat="48.39248" lon="2.56262">
        <ele>104.56064605713</ele>
        <time>2020-05-29T11:14:29.330Z</time>
      </trkpt>
      <trkpt lat="48.39258" lon="2.56248">
        <ele>105.65950012207</ele>
        <time>2020-05-29T11:14:35.838Z</time>
      </trkpt>
      <trkpt lat="48.39259" lon="2.5623">
        <ele>104.43103790283</ele>
        <time>2020-05-29T11:14:42.349Z</time>
      </trkpt>
      <trkpt lat="48.39253" lon="2.56219">
        <ele>102.65856933594</ele>
        <time>2020-05-29T11:14:48.861Z</time>
      </trkpt>
      <trkpt lat="48.39258" lon="2.56185">
        <ele>100.35821533203</ele>
        <time>2020-05-29T11:14:55.378Z</time>
      </trkpt>
      <trkpt lat="48.39282" lon="2.56153">
        <ele>99.182456970215</ele>
        <time>2020-05-29T11:15:01.901Z</time>
      </trkpt>
      <trkpt lat="48.39288" lon="2.56138">
        <ele>98.950347900391</ele>
        <time>2020-05-29T11:15:08.427Z</time>
      </trkpt>
      <trkpt lat="48.39297" lon="2.56047">
        <ele>100.16734313965</ele>
        <time>2020-05-29T11:15:14.965Z</time>
      </trkpt>
      <trkpt lat="48.39304" lon="2.5602">
        <ele>100.70929718018</ele>
        <time>2020-05-29T11:15:21.507Z</time>
      </trkpt>
      <trkpt lat="48.39302" lon="2.55997">
        <ele>101.09906005859</ele>
        <time>2020-05-29T11:15:28.052Z</time>
      </trkpt>
      <trkpt lat="48.39279" lon="2.55979">
        <ele>99.217163085938</ele>
        <time>2020-05-29T11:15:34.602Z</time>
      </trkpt>
      <trkpt lat="48.39278" lon="2.55954">
        <ele>97.666839599609</ele>
        <time>2020-05-29T11:15:41.156Z</time>
      </trkpt>
      <trkpt lat="48.39287" lon="2.55922">
        <ele>96.471977233887</ele>
        <time>2020-05-29T11:15:47.714Z</time>
      </trkpt>
      <trkpt lat="48.39284" lon="2.55883">
        <ele>94.469520568848</ele>
        <time>2020-05-29T11:15:54.278Z</time>
      </trkpt>
      <trkpt lat="48.39297" lon="2.55844">
        <ele>94.717918395996</ele>
        <time>2020-05-29T11:16:00.847Z</time>
      </trkpt>
      <trkpt lat="48.39324" lon="2.55804">
        <ele>96.293045043945</ele>
        <time>2020-05-29T11:16:07.424Z</time>
      </trkpt>
      <trkpt lat="48.39322" lon="2.5578">
        <ele>95.560829162598</ele>
        <time>2020-05-29T11:16:14.004Z</time>
      </trkpt>
      <trkpt lat="48.39314" lon="2.55756">
        <ele>93.802627563477</ele>
        <time>2020-05-29T11:16:20.588Z</time>
      </trkpt>
      <trkpt lat="48.39322" lon="2.55744">
        <ele>94.916847229004</ele>
        <time>2020-05-29T11:16:27.174Z</time>
      </trkpt>
      <trkpt lat="48.39329" lon="2.55721">
        <ele>94.434867858887</ele>
        <time>2020-05-29T11:16:33.763Z</time>
      </trkpt>
      <trkpt lat="48.39329" lon="2.55703">
        <ele>92.614212036133</ele>
        <time>2020-05-29T11:16:40.355Z</time>
      </trkpt>
      <trkpt lat="48.39311" lon="2.55682">
        <ele>87.938293457031</ele>
        <time>2020-05-29T11:16:46.951Z</time>
      </trkpt>
      <trkpt lat="48.39295" lon="2.55646">
        <ele>83.566741943359</ele>
        <time>2020-05-29T11:16:53.553Z</time>
      </trkpt>
      <trkpt lat="48.39269" lon="2.55618">
        <ele>78.852401733398</ele>
        <time>2020-05-29T11:17:00.162Z</time>
      </trkpt>
      <trkpt lat="48.39248" lon="2.55584">
        <ele>77.002418518066</ele>
        <time>2020-05-29T11:17:06.777Z</time>
      </trkpt>
      <trkpt lat="48.39236" lon="2.55576">
        <ele>76.905868530273</ele>
        <time>2020-05-29T11:17:13.394Z</time>
      </trkpt>
      <trkpt lat="48.39222" lon="2.55588">
        <ele>77.118873596191</ele>
        <time>2020-05-29T11:17:20.014Z</time>
      </trkpt>
      <trkpt lat="48.39107" lon="2.55728">
        <ele>75.718574523926</ele>
        <time>2020-05-29T11:17:26.664Z</time>
      </trkpt>
      <trkpt lat="48.39089" lon="2.55742">
        <ele>76.113784790039</ele>
        <time>2020-05-29T11:17:33.318Z</time>
      </trkpt>
      <trkpt lat="48.39018" lon="2.55604">
        <ele>76.926261901855</ele>
        <time>2020-05-29T11:17:39.995Z</time>
      </trkpt>
      <trkpt lat="48.39004" lon="2.55535">
        <ele>76.665397644043</ele>
        <time>2020-05-29T11:17:46.682Z</time>
      </trkpt>
      <trkpt lat="48.39001" lon="2.55487">
        <ele>76.161758422852</ele>
        <time>2020-05-29T11:17:53.375Z</time>
      </trkpt>
      <trkpt lat="48.38996" lon="2.55472">
        <ele>76.229232788086</ele>
        <time>2020-05-29T11:18:00.071Z</time>
      </trkpt>
      <trkpt lat="48.39002" lon="2.55456">
        <ele>76.153099060059</ele>
        <time>2020-05-29T11:18:06.769Z</time>
      </trkpt>
      <trkpt lat="48.39022" lon="2.55438">
        <ele>75.830528259277</ele>
        <time>2020-05-29T11:18:13.472Z</time>
      </trkpt>
      <trkpt lat="48.39032" lon="2.55422">
        <ele>75.594390869141</ele>
        <time>2020-05-29T11:18:20.178Z</time>
      </trkpt>
      <trkpt lat="48.39042" lon="2.55355">
        <ele>76.170341491699</ele>
        <time>2020-05-29T11:18:26.893Z</time>
      </trkpt>
      <trkpt lat="48.39046" lon="2.55284">
        <ele>78.44140625</ele>
        <time>2020-05-29T11:18:33.618Z</time>
      </trkpt>
      <trkpt lat="48.39041" lon="2.55277">
        <ele>78.7265625</ele>
        <time>2020-05-29T11:18:40.344Z</time>
      </trkpt>
    </trkseg>
  </trk>
</gpx>